Observation data for Persimmon Gap on 08/14/2019      Previous  Date  Next       Current Mesonet Observations  Soil Data  Daily Summary Page  Observations in Plain Language
KPG1 140500Z 01015KT 32/15 A3002 RMK A01 T03160145  RH  036%=      5-min Rain = 0
KPG1 140501Z 01014KT 32/15 A3002 RMK A01 T03160145  RH  035%=      5-min Rain = 0
KPG1 140502Z 00018KT 32/14 A3002 RMK A01 T03170144  RH  035%=      5-min Rain = 0
KPG1 140503Z 01015KT 32/14 A3002 RMK A01 T03180143  RH  035%=      5-min Rain = 0
KPG1 140504Z 36013KT 32/15 A3002 RMK A01 T03170147  RH  036%=      5-min Rain = 0
KPG1 140505Z 36015KT 31/15 A3002 RMK A01 T03140147  RH  036%=      5-min Rain = 0
KPG1 140506Z 35016KT 31/15 A3002 RMK A01 T03110147  RH  037%=      5-min Rain = 0
KPG1 140507Z 35016KT 31/15 A3002 RMK A01 T03090147  RH  037%=      5-min Rain = 0
KPG1 140508Z 35015KT 31/15 A3002 RMK A01 T03080147  RH  038%=      5-min Rain = 0
KPG1 140509Z 36017KT 31/15 A3002 RMK A01 T03080146  RH  037%=      5-min Rain = 0
KPG1 140510Z 35016KT 31/15 A3002 RMK A01 T03090145  RH  037%=      5-min Rain = 0
KPG1 140511Z 35018KT 31/14 A3002 RMK A01 T03100144  RH  037%=      5-min Rain = 0
KPG1 140512Z 35018KT 31/14 A3002 RMK A01 T03100144  RH  036%=      5-min Rain = 0
KPG1 140513Z 35016KT 31/15 A3002 RMK A01 T03100145  RH  037%=      5-min Rain = 0
KPG1 140514Z 35014G19KT 31/14 A3002 RMK A01 T03090144  RH  037%=      5-min Rain = 0
KPG1 140515Z 35015G22KT 31/15 A3002 RMK A01 T03080145  RH  037%=      5-min Rain = 0
KPG1 140516Z 34018KT 31/15 A3002 RMK A01 T03070145  RH  037%=      5-min Rain = 0
KPG1 140517Z 34016G23KT 31/15 A3002 RMK A01 T03050145  RH  038%=      5-min Rain = 0
KPG1 140518Z 34018KT 30/15 A3002 RMK A01 T03030146  RH  038%=      5-min Rain = 0
KPG1 140519Z 34020KT 30/15 A3002 RMK A01 T03020146  RH  039%=      5-min Rain = 0
KPG1 140520Z 34017KT 30/15 A3002 RMK A01 T03020146  RH  039%=      5-min Rain = 0
KPG1 140521Z 35016KT 30/15 A3002 RMK A01 T03020147  RH  039%=      5-min Rain = 0
KPG1 140522Z 34014KT 30/15 A3002 RMK A01 T03010147  RH  039%=      5-min Rain = 0
KPG1 140523Z 34015G20KT 30/15 A3002 RMK A01 T03010147  RH  039%=      5-min Rain = 0
KPG1 140524Z 35020KT 30/15 A3002 RMK A01 T03010147  RH  039%=      5-min Rain = 0
KPG1 140525Z 35019KT 30/15 A3002 RMK A01 T03010148  RH  039%=      5-min Rain = 0
KPG1 140526Z 35017KT 30/15 A3002 RMK A01 T03010148  RH  039%=      5-min Rain = 0
KPG1 140527Z 34015G20KT 30/15 A3002 RMK A01 T03010148  RH  040%=      5-min Rain = 0
KPG1 140528Z 35016G21KT 30/15 A3002 RMK A01 T03010149  RH  040%=      5-min Rain = 0
KPG1 140529Z 35016KT 30/15 A3002 RMK A01 T03000149  RH  040%=      5-min Rain = 0
KPG1 140530Z 35017KT 30/15 A3002 RMK A01 T03000150  RH  040%=      5-min Rain = 0
KPG1 140531Z 34019KT 30/15 A3002 RMK A01 T03000150  RH  040%=      5-min Rain = 0
KPG1 140532Z 34013G20KT 30/15 A3002 RMK A01 T02990151  RH  040%=      5-min Rain = 0
KPG1 140533Z 34016KT 30/15 A3002 RMK A01 T02990151  RH  041%=      5-min Rain = 0
KPG1 140534Z 34015KT 30/15 A3002 RMK A01 T02990151  RH  041%=      5-min Rain = 0
KPG1 140535Z 34015G21KT 30/15 A3002 RMK A01 T02980152  RH  041%=      5-min Rain = 0
KPG1 140536Z 35017KT 30/15 A3002 RMK A01 T02980153  RH  041%=      5-min Rain = 0
KPG1 140537Z 35014KT 30/15 A3003 RMK A01 T02970153  RH  042%=      5-min Rain = 0
KPG1 140538Z 35013KT 30/15 A3003 RMK A01 T02960153  RH  042%=      5-min Rain = 0
KPG1 140539Z 35012KT 30/15 A3003 RMK A01 T02960154  RH  042%=      5-min Rain = 0
KPG1 140540Z 36013KT 30/16 A3003 RMK A01 T02950155  RH  043%=      5-min Rain = 0
KPG1 140541Z 35016KT 30/16 A3003 RMK A01 T02950156  RH  043%=      5-min Rain = 0
KPG1 140542Z 35016KT 29/16 A3003 RMK A01 T02940156  RH  043%=      5-min Rain = 0
KPG1 140543Z 35017KT 29/16 A3003 RMK A01 T02930157  RH  044%=      5-min Rain = 0
KPG1 140544Z 35018KT 29/16 A3003 RMK A01 T02930158  RH  044%=      5-min Rain = 0
KPG1 140545Z 35016KT 29/16 A3003 RMK A01 T02920158  RH  044%=      5-min Rain = 0
KPG1 140546Z 35016KT 29/16 A3003 RMK A01 T02920159  RH  044%=      5-min Rain = 0
KPG1 140547Z 35018KT 29/16 A3003 RMK A01 T02910159  RH  045%=      5-min Rain = 0
KPG1 140548Z 35017KT 29/16 A3003 RMK A01 T02910159  RH  045%=      5-min Rain = 0
KPG1 140549Z 35014G20KT 29/16 A3003 RMK A01 T02910160  RH  045%=      5-min Rain = 0
KPG1 140550Z 35016KT 29/16 A3003 RMK A01 T02910160  RH  045%=      5-min Rain = 0
KPG1 140551Z 35018KT 29/16 A3003 RMK A01 T02900160  RH  045%=      5-min Rain = 0
KPG1 140552Z 36016KT 29/16 A3003 RMK A01 T02910160  RH  045%=      5-min Rain = 0
KPG1 140553Z 35014KT 29/16 A3003 RMK A01 T02910160  RH  045%=      5-min Rain = 0
KPG1 140554Z 35013KT 29/16 A3003 RMK A01 T02900160  RH  045%=      5-min Rain = 0
KPG1 140555Z 35011G17KT 29/16 A3003 RMK A01 T02900160  RH  045%=      5-min Rain = 0
KPG1 140556Z 34011KT 29/16 A3003 RMK A01 T02910160  RH  045%=      5-min Rain = 0
KPG1 140557Z 34014KT 29/16 A3003 RMK A01 T02910159  RH  045%=      5-min Rain = 0
KPG1 140558Z 34014G19KT 29/16 A3003 RMK A01 T02920159  RH  044%=      5-min Rain = 0
KPG1 140559Z 34018KT 29/16 A3003 RMK A01 T02930158  RH  044%=      5-min Rain = 0
KPG1 140600Z 34014KT 29/16 A3003 RMK A01 T02940158  RH  044%=      5-min Rain = 0
KPG1 140601Z 34015G21KT 29/16 A3003 RMK A01 T02940157  RH  043%=      5-min Rain = 0
KPG1 140602Z 34014G20KT 30/16 A3003 RMK A01 T02950156  RH  043%=      5-min Rain = 0
KPG1 140603Z 34015KT 30/16 A3003 RMK A01 T02960156  RH  043%=      5-min Rain = 0
KPG1 140604Z 34017KT 30/16 A3003 RMK A01 T02970156  RH  043%=      5-min Rain = 0
KPG1 140605Z 34015KT 30/16 A3003 RMK A01 T02980156  RH  042%=      5-min Rain = 0
KPG1 140606Z 34015G20KT 30/16 A3003 RMK A01 T02980156  RH  042%=      5-min Rain = 0
KPG1 140607Z 34018KT 30/16 A3003 RMK A01 T02980155  RH  042%=      5-min Rain = 0
KPG1 140608Z 33016G21KT 30/15 A3003 RMK A01 T03000154  RH  041%=      5-min Rain = 0
KPG1 140609Z 34017KT 30/15 A3003 RMK A01 T03010154  RH  041%=      5-min Rain = 0
KPG1 140610Z 34017KT 30/16 A3003 RMK A01 T03010155  RH  041%=      5-min Rain = 0
KPG1 140611Z 34014KT 30/16 A3003 RMK A01 T03010155  RH  041%=      5-min Rain = 0
KPG1 140612Z 34014KT 30/15 A3003 RMK A01 T03010154  RH  041%=      5-min Rain = 0
KPG1 140613Z 34014KT 30/15 A3003 RMK A01 T03010153  RH  041%=      5-min Rain = 0
KPG1 140614Z 34014G21KT 30/15 A3003 RMK A01 T03020154  RH  041%=      5-min Rain = 0
KPG1 140615Z 34014KT 30/15 A3003 RMK A01 T03020152  RH  040%=      5-min Rain = 0
KPG1 140616Z 34015KT 30/15 A3003 RMK A01 T03030152  RH  040%=      5-min Rain = 0
KPG1 140617Z 34014KT 30/15 A3003 RMK A01 T03030152  RH  040%=      5-min Rain = 0
KPG1 140618Z 34014KT 30/15 A3003 RMK A01 T03040152  RH  040%=      5-min Rain = 0
KPG1 140619Z 33010KT 30/15 A3003 RMK A01 T03040152  RH  040%=      5-min Rain = 0
KPG1 140620Z 33010KT 30/15 A3003 RMK A01 T03040153  RH  040%=      5-min Rain = 0
KPG1 140621Z 34012G17KT 30/15 A3003 RMK A01 T03030153  RH  040%=      5-min Rain = 0
KPG1 140622Z 33013KT 30/15 A3003 RMK A01 T03030153  RH  040%=      5-min Rain = 0
KPG1 140623Z 33013KT 30/15 A3003 RMK A01 T03030153  RH  040%=      5-min Rain = 0
KPG1 140624Z 33014KT 30/15 A3003 RMK A01 T03020154  RH  041%=      5-min Rain = 0
KPG1 140625Z 33014G20KT 30/15 A3003 RMK A01 T03010153  RH  041%=      5-min Rain = 0
KPG1 140626Z 33013KT 30/15 A3003 RMK A01 T03010153  RH  041%=      5-min Rain = 0
KPG1 140627Z 33012KT 30/15 A3003 RMK A01 T03010153  RH  041%=      5-min Rain = 0
KPG1 140628Z 33012KT 30/15 A3003 RMK A01 T03020153  RH  040%=      5-min Rain = 0
KPG1 140629Z 32011KT 30/15 A3003 RMK A01 T03020152  RH  040%=      5-min Rain = 0
KPG1 140630Z 33016KT 30/15 A3003 RMK A01 T03030152  RH  040%=      5-min Rain = 0
KPG1 140631Z 32013G20KT 30/15 A3003 RMK A01 T03040151  RH  040%=      5-min Rain = 0
KPG1 140632Z 32015KT 31/15 A3003 RMK A01 T03050151  RH  039%=      5-min Rain = 0
KPG1 140633Z 32017G22KT 31/15 A3003 RMK A01 T03050151  RH  039%=      5-min Rain = 0
KPG1 140634Z 32016KT 31/15 A3003 RMK A01 T03050152  RH  039%=      5-min Rain = 0
KPG1 140635Z 33014KT 31/15 A3003 RMK A01 T03050152  RH  039%=      5-min Rain = 0
KPG1 140636Z 33015G22KT 31/15 A3003 RMK A01 T03050152  RH  039%=      5-min Rain = 0
KPG1 140637Z 32015KT 31/15 A3003 RMK A01 T03050152  RH  039%=      5-min Rain = 0
KPG1 140638Z 32014KT 31/15 A3003 RMK A01 T03050150  RH  039%=      5-min Rain = 0
KPG1 140639Z 32014KT 31/15 A3003 RMK A01 T03060151  RH  039%=      5-min Rain = 0
KPG1 140640Z 32012G20KT 31/15 A3003 RMK A01 T03060151  RH  039%=      5-min Rain = 0
KPG1 140641Z 33015KT 31/15 A3003 RMK A01 T03060151  RH  039%=      5-min Rain = 0
KPG1 140642Z 32016KT 31/15 A3003 RMK A01 T03060151  RH  039%=      5-min Rain = 0
KPG1 140643Z 32014G19KT 31/15 A3003 RMK A01 T03060151  RH  039%=      5-min Rain = 0
KPG1 140644Z 32016KT 31/15 A3003 RMK A01 T03060151  RH  039%=      5-min Rain = 0
KPG1 140645Z 32014KT 31/15 A3003 RMK A01 T03060151  RH  039%=      5-min Rain = 0
KPG1 140646Z 32016KT 31/15 A3003 RMK A01 T03070150  RH  039%=      5-min Rain = 0
KPG1 140647Z 33015KT 31/15 A3003 RMK A01 T03070150  RH  038%=      5-min Rain = 0
KPG1 140648Z 33017KT 31/15 A3003 RMK A01 T03090149  RH  038%=      5-min Rain = 0
KPG1 140649Z 34016KT 31/15 A3003 RMK A01 T03100149  RH  038%=      5-min Rain = 0
KPG1 140650Z 34015KT 31/15 A3003 RMK A01 T03100149  RH  038%=      5-min Rain = 0
KPG1 140651Z 34015KT 31/15 A3003 RMK A01 T03100149  RH  038%=      5-min Rain = 0
KPG1 140652Z 34014KT 31/15 A3003 RMK A01 T03100150  RH  038%=      5-min Rain = 0
KPG1 140653Z 34012KT 31/15 A3003 RMK A01 T03090150  RH  038%=      5-min Rain = 0
KPG1 140654Z 34014KT 31/15 A3003 RMK A01 T03090151  RH  038%=      5-min Rain = 0
KPG1 140655Z 34016KT 31/15 A3003 RMK A01 T03080150  RH  038%=      5-min Rain = 0
KPG1 140656Z 34014KT 31/15 A3003 RMK A01 T03080149  RH  038%=      5-min Rain = 0
KPG1 140657Z 35013KT 31/15 A3003 RMK A01 T03090149  RH  038%=      5-min Rain = 0
KPG1 140658Z 35011KT 31/15 A3003 RMK A01 T03090150  RH  038%=      5-min Rain = 0
KPG1 140659Z 34010KT 31/15 A3003 RMK A01 T03080151  RH  038%=      5-min Rain = 0
KPG1 140700Z 35011KT 31/15 A3003 RMK A01 T03070151  RH  039%=      5-min Rain = 0
KPG1 140701Z 34012KT 31/15 A3003 RMK A01 T03070150  RH  039%=      5-min Rain = 0
KPG1 140702Z 34012KT 31/15 A3003 RMK A01 T03070151  RH  039%=      5-min Rain = 0
KPG1 140703Z 33012KT 31/15 A3003 RMK A01 T03070151  RH  039%=      5-min Rain = 0
KPG1 140704Z 33011KT 31/15 A3003 RMK A01 T03060151  RH  039%=      5-min Rain = 0
KPG1 140705Z 33011KT 31/15 A3003 RMK A01 T03060151  RH  039%=      5-min Rain = 0
KPG1 140706Z 33013KT 31/15 A3003 RMK A01 T03060150  RH  039%=      5-min Rain = 0
KPG1 140707Z 34013KT 31/15 A3003 RMK A01 T03060150  RH  039%=      5-min Rain = 0
KPG1 140708Z 34011KT 31/15 A3003 RMK A01 T03060150  RH  039%=      5-min Rain = 0
KPG1 140709Z 33012KT 31/15 A3003 RMK A01 T03060150  RH  039%=      5-min Rain = 0
KPG1 140710Z 32013KT 31/15 A3003 RMK A01 T03060150  RH  039%=      5-min Rain = 0
KPG1 140711Z 33012KT 31/15 A3003 RMK A01 T03050150  RH  039%=      5-min Rain = 0
KPG1 140712Z 33010KT 31/15 A3003 RMK A01 T03050150  RH  039%=      5-min Rain = 0
KPG1 140713Z 32012KT 31/15 A3003 RMK A01 T03050150  RH  039%=      5-min Rain = 0
KPG1 140714Z 32011KT 31/15 A3003 RMK A01 T03060149  RH  039%=      5-min Rain = 0
KPG1 140715Z 33010KT 31/15 A3003 RMK A01 T03060149  RH  039%=      5-min Rain = 0
KPG1 140716Z 33012KT 31/15 A3003 RMK A01 T03070150  RH  039%=      5-min Rain = 0
KPG1 140717Z 33012KT 31/15 A3003 RMK A01 T03060150  RH  039%=      5-min Rain = 0
KPG1 140718Z 32010KT 31/15 A3003 RMK A01 T03060150  RH  039%=      5-min Rain = 0
KPG1 140719Z 33011KT 31/15 A3003 RMK A01 T03060150  RH  039%=      5-min Rain = 0
KPG1 140720Z 34010KT 31/15 A3003 RMK A01 T03060150  RH  039%=      5-min Rain = 0
KPG1 140721Z 34011KT 31/15 A3003 RMK A01 T03050151  RH  039%=      5-min Rain = 0
KPG1 140722Z 33013KT 30/15 A3004 RMK A01 T03040151  RH  039%=      5-min Rain = 0
KPG1 140723Z 34015KT 30/15 A3003 RMK A01 T03030152  RH  040%=      5-min Rain = 0
KPG1 140724Z 34010KT 30/15 A3004 RMK A01 T03020152  RH  040%=      5-min Rain = 0
KPG1 140725Z 34013G18KT 30/15 A3004 RMK A01 T03010152  RH  040%=      5-min Rain = 0
KPG1 140726Z 34014G20KT 30/15 A3004 RMK A01 T03010152  RH  041%=      5-min Rain = 0
KPG1 140727Z 35010KT 30/15 A3004 RMK A01 T03010152  RH  041%=      5-min Rain = 0
KPG1 140728Z 34009KT 30/15 A3004 RMK A01 T03010153  RH  041%=      5-min Rain = 0
KPG1 140729Z 34008KT 30/15 A3004 RMK A01 T03000152  RH  041%=      5-min Rain = 0
KPG1 140730Z 34010KT 30/15 A3004 RMK A01 T03000152  RH  041%=      5-min Rain = 0
KPG1 140731Z 36011KT 30/15 A3004 RMK A01 T03000152  RH  041%=      5-min Rain = 0
KPG1 140732Z 36008KT 30/15 A3004 RMK A01 T03000152  RH  041%=      5-min Rain = 0
KPG1 140733Z 36010KT 30/15 A3004 RMK A01 T03000152  RH  041%=      5-min Rain = 0
KPG1 140734Z 35006KT 30/15 A3004 RMK A01 T03000153  RH  041%=      5-min Rain = 0
KPG1 140735Z 35006KT 30/15 A3004 RMK A01 T03000153  RH  041%=      5-min Rain = 0
KPG1 140736Z 35009G14KT 30/15 A3004 RMK A01 T03000153  RH  041%=      5-min Rain = 0
KPG1 140737Z 35011KT 30/15 A3004 RMK A01 T02990151  RH  041%=      5-min Rain = 0
KPG1 140738Z 34011KT 30/15 A3004 RMK A01 T03000150  RH  040%=      5-min Rain = 0
KPG1 140739Z 35009G15KT 30/15 A3004 RMK A01 T03000150  RH  040%=      5-min Rain = 0
KPG1 140740Z 35013KT 30/15 A3004 RMK A01 T03000150  RH  040%=      5-min Rain = 0
KPG1 140741Z 35010KT 30/15 A3004 RMK A01 T03010150  RH  040%=      5-min Rain = 0
KPG1 140742Z 35011KT 30/15 A3004 RMK A01 T03000150  RH  040%=      5-min Rain = 0
KPG1 140743Z 35010KT 30/15 A3004 RMK A01 T03000150  RH  040%=      5-min Rain = 0
KPG1 140744Z 34009KT 30/15 A3004 RMK A01 T03000150  RH  040%=      5-min Rain = 0
KPG1 140745Z 33011KT 30/15 A3003 RMK A01 T03000150  RH  040%=      5-min Rain = 0
KPG1 140746Z 35009KT 30/15 A3003 RMK A01 T03000150  RH  040%=      5-min Rain = 0
KPG1 140747Z 35013G19KT 30/15 A3003 RMK A01 T02990149  RH  040%=      5-min Rain = 0
KPG1 140748Z 34011KT 30/15 A3003 RMK A01 T02990148  RH  040%=      5-min Rain = 0
KPG1 140749Z 33013KT 30/15 A3003 RMK A01 T02990147  RH  039%=      5-min Rain = 0
KPG1 140750Z 33013G18KT 30/15 A3003 RMK A01 T03000146  RH  039%=      5-min Rain = 0
KPG1 140751Z 34013G18KT 30/15 A3003 RMK A01 T03000147  RH  039%=      5-min Rain = 0
KPG1 140752Z 34012KT 30/15 A3003 RMK A01 T03010147  RH  039%=      5-min Rain = 0
KPG1 140753Z 34013KT 30/15 A3003 RMK A01 T03010148  RH  039%=      5-min Rain = 0
KPG1 140754Z 35013KT 30/15 A3003 RMK A01 T03010148  RH  040%=      5-min Rain = 0
KPG1 140755Z 34011KT 30/15 A3003 RMK A01 T03010149  RH  040%=      5-min Rain = 0
KPG1 140756Z 34011KT 30/15 A3003 RMK A01 T03000150  RH  040%=      5-min Rain = 0
KPG1 140757Z 34010KT 30/15 A3003 RMK A01 T03000149  RH  040%=      5-min Rain = 0
KPG1 140758Z 34012KT 30/15 A3003 RMK A01 T03010149  RH  039%=      5-min Rain = 0
KPG1 140759Z 34011G16KT 30/15 A3003 RMK A01 T03020149  RH  039%=      5-min Rain = 0
KPG1 140800Z 34012KT 30/15 A3003 RMK A01 T03020149  RH  039%=      5-min Rain = 0
KPG1 140801Z 34010G15KT 30/15 A3003 RMK A01 T03030149  RH  039%=      5-min Rain = 0
KPG1 140802Z 34011G16KT 30/15 A3003 RMK A01 T03030149  RH  039%=      5-min Rain = 0
KPG1 140803Z 35012KT 30/15 A3003 RMK A01 T03030150  RH  039%=      5-min Rain = 0
KPG1 140804Z 36013KT 30/15 A3003 RMK A01 T03030150  RH  040%=      5-min Rain = 0
KPG1 140805Z 34011G16KT 30/15 A3003 RMK A01 T03020152  RH  040%=      5-min Rain = 0
KPG1 140806Z 34009G16KT 30/15 A3003 RMK A01 T03000151  RH  040%=      5-min Rain = 0
KPG1 140807Z 35013KT 30/15 A3003 RMK A01 T03000152  RH  041%=      5-min Rain = 0
KPG1 140808Z 34013KT 30/15 A3003 RMK A01 T02980152  RH  041%=      5-min Rain = 0
KPG1 140809Z 35013KT 30/15 A3003 RMK A01 T02980153  RH  041%=      5-min Rain = 0
KPG1 140810Z 35011KT 30/15 A3003 RMK A01 T02970153  RH  042%=      5-min Rain = 0
KPG1 140811Z 34009KT 30/15 A3003 RMK A01 T02960153  RH  042%=      5-min Rain = 0
KPG1 140812Z 34011KT 30/15 A3003 RMK A01 T02960153  RH  042%=      5-min Rain = 0
KPG1 140813Z 33011KT 30/15 A3003 RMK A01 T02960152  RH  042%=      5-min Rain = 0
KPG1 140814Z 34012KT 30/15 A3003 RMK A01 T02960150  RH  041%=      5-min Rain = 0
KPG1 140815Z 33010KT 30/15 A3003 RMK A01 T02970147  RH  040%=      5-min Rain = 0
KPG1 140816Z 34012G17KT 30/15 A3003 RMK A01 T02990146  RH  039%=      5-min Rain = 0
KPG1 140817Z 34012KT 30/15 A3003 RMK A01 T03010146  RH  039%=      5-min Rain = 0
KPG1 140818Z 33012KT 30/15 A3003 RMK A01 T03020145  RH  038%=      5-min Rain = 0
KPG1 140819Z 34011KT 31/15 A3003 RMK A01 T03050145  RH  038%=      5-min Rain = 0
KPG1 140820Z 34011KT 31/15 A3003 RMK A01 T03070145  RH  038%=      5-min Rain = 0
KPG1 140821Z 34012KT 31/15 A3003 RMK A01 T03070145  RH  037%=      5-min Rain = 0
KPG1 140822Z 34010KT 31/15 A3003 RMK A01 T03070145  RH  037%=      5-min Rain = 0
KPG1 140823Z 35010KT 31/15 A3003 RMK A01 T03070145  RH  037%=      5-min Rain = 0
KPG1 140824Z 35010KT 31/15 A3003 RMK A01 T03060145  RH  037%=      5-min Rain = 0
KPG1 140825Z 35010KT 31/15 A3003 RMK A01 T03060145  RH  037%=      5-min Rain = 0
KPG1 140826Z 36011KT 31/14 A3003 RMK A01 T03070144  RH  037%=      5-min Rain = 0
KPG1 140827Z 36011KT 31/14 A3004 RMK A01 T03060144  RH  037%=      5-min Rain = 0
KPG1 140828Z 35009KT 31/14 A3003 RMK A01 T03060144  RH  037%=      5-min Rain = 0
KPG1 140829Z 33011KT 31/14 A3003 RMK A01 T03050143  RH  037%=      5-min Rain = 0
KPG1 140830Z 33013KT 30/14 A3003 RMK A01 T03040143  RH  037%=      5-min Rain = 0
KPG1 140831Z 34012KT 30/14 A3003 RMK A01 T03040144  RH  038%=      5-min Rain = 0
KPG1 140832Z 35011KT 30/15 A3003 RMK A01 T03040145  RH  038%=      5-min Rain = 0
KPG1 140833Z 34011KT 30/15 A3004 RMK A01 T03030145  RH  038%=      5-min Rain = 0
KPG1 140834Z 34013KT 30/15 A3003 RMK A01 T03020145  RH  039%=      5-min Rain = 0
KPG1 140835Z 35011KT 30/15 A3004 RMK A01 T03020146  RH  039%=      5-min Rain = 0
KPG1 140836Z 00007KT 30/15 A3004 RMK A01 T03010147  RH  039%=      5-min Rain = 0
KPG1 140837Z 02005KT 30/15 A3004 RMK A01 T03000149  RH  040%=      5-min Rain = 0
KPG1 140838Z 01007KT 30/15 A3004 RMK A01 T02990149  RH  040%=      5-min Rain = 0
KPG1 140839Z 00008KT 30/15 A3004 RMK A01 T02980148  RH  040%=      5-min Rain = 0
KPG1 140840Z 35010KT 30/15 A3004 RMK A01 T02980147  RH  040%=      5-min Rain = 0
KPG1 140841Z 02009KT 30/15 A3004 RMK A01 T02980147  RH  040%=      5-min Rain = 0
KPG1 140842Z 01009KT 30/15 A3004 RMK A01 T02980148  RH  040%=      5-min Rain = 0
KPG1 140843Z 36009KT 30/15 A3003 RMK A01 T02980148  RH  040%=      5-min Rain = 0
KPG1 140844Z 01009KT 30/15 A3003 RMK A01 T02980148  RH  040%=      5-min Rain = 0
KPG1 140845Z 01008KT 30/15 A3003 RMK A01 T02980148  RH  040%=      5-min Rain = 0
KPG1 140846Z 01008KT 30/15 A3003 RMK A01 T02980147  RH  040%=      5-min Rain = 0
KPG1 140847Z 04006KT 30/15 A3003 RMK A01 T02980151  RH  041%=      5-min Rain = 0
KPG1 140848Z 04005KT 30/15 A3003 RMK A01 T02950152  RH  042%=      5-min Rain = 0
KPG1 140849Z 04007KT 29/15 A3003 RMK A01 T02940152  RH  042%=      5-min Rain = 0
KPG1 140850Z 05009KT 29/15 A3003 RMK A01 T02930152  RH  042%=      5-min Rain = 0
KPG1 140851Z 04008KT 29/15 A3003 RMK A01 T02930152  RH  042%=      5-min Rain = 0
KPG1 140852Z 04008KT 29/15 A3003 RMK A01 T02930152  RH  043%=      5-min Rain = 0
KPG1 140853Z 03008KT 29/15 A3003 RMK A01 T02920153  RH  043%=      5-min Rain = 0
KPG1 140854Z 04008KT 29/15 A3003 RMK A01 T02910153  RH  043%=      5-min Rain = 0
KPG1 140855Z 04007KT 29/15 A3003 RMK A01 T02910153  RH  043%=      5-min Rain = 0
KPG1 140856Z 03008KT 29/15 A3003 RMK A01 T02910153  RH  043%=      5-min Rain = 0
KPG1 140857Z 03009KT 29/15 A3003 RMK A01 T02900153  RH  043%=      5-min Rain = 0
KPG1 140858Z 03009KT 29/15 A3002 RMK A01 T02900154  RH  043%=      5-min Rain = 0
KPG1 140859Z 03008KT 29/15 A3002 RMK A01 T02890154  RH  044%=      5-min Rain = 0
KPG1 140900Z 02009KT 29/16 A3002 RMK A01 T02880155  RH  044%=      5-min Rain = 0
KPG1 140901Z 02008KT 29/16 A3002 RMK A01 T02880155  RH  045%=      5-min Rain = 0
KPG1 140902Z 03009KT 29/16 A3002 RMK A01 T02870156  RH  045%=      5-min Rain = 0
KPG1 140903Z 03009KT 29/16 A3002 RMK A01 T02860156  RH  045%=      5-min Rain = 0
KPG1 140904Z 02008KT 29/16 A3002 RMK A01 T02860156  RH  045%=      5-min Rain = 0
KPG1 140905Z 02008KT 29/16 A3002 RMK A01 T02860155  RH  045%=      5-min Rain = 0
KPG1 140906Z 03009KT 29/15 A3002 RMK A01 T02870154  RH  044%=      5-min Rain = 0
KPG1 140907Z 04010KT 29/16 A3002 RMK A01 T02870155  RH  045%=      5-min Rain = 0
KPG1 140908Z 04009KT 29/16 A3002 RMK A01 T02870156  RH  045%=      5-min Rain = 0
KPG1 140909Z 03010KT 29/16 A3002 RMK A01 T02860155  RH  045%=      5-min Rain = 0
KPG1 140910Z 02010KT 29/16 A3002 RMK A01 T02860155  RH  045%=      5-min Rain = 0
KPG1 140911Z 02010KT 29/16 A3002 RMK A01 T02860156  RH  045%=      5-min Rain = 0
KPG1 140912Z 02010KT 29/16 A3002 RMK A01 T02860156  RH  045%=      5-min Rain = 0
KPG1 140913Z 02009KT 29/15 A3002 RMK A01 T02850154  RH  045%=      5-min Rain = 0
KPG1 140914Z 02009KT 29/15 A3002 RMK A01 T02860154  RH  045%=      5-min Rain = 0
KPG1 140915Z 02011KT 29/15 A3002 RMK A01 T02870153  RH  044%=      5-min Rain = 0
KPG1 140916Z 02009KT 29/15 A3002 RMK A01 T02880151  RH  043%=      5-min Rain = 0
KPG1 140917Z 02010KT 29/15 A3002 RMK A01 T02900151  RH  043%=      5-min Rain = 0
KPG1 140918Z 02012KT 29/15 A3002 RMK A01 T02910151  RH  043%=      5-min Rain = 0
KPG1 140919Z 02012KT 29/15 A3002 RMK A01 T02910151  RH  042%=      5-min Rain = 0
KPG1 140920Z 02010KT 29/15 A3002 RMK A01 T02920151  RH  042%=      5-min Rain = 0
KPG1 140921Z 02012KT 29/15 A3002 RMK A01 T02920151  RH  042%=      5-min Rain = 0
KPG1 140922Z 03010KT 29/15 A3002 RMK A01 T02920152  RH  043%=      5-min Rain = 0
KPG1 140923Z 04009KT 29/16 A3002 RMK A01 T02910155  RH  044%=      5-min Rain = 0
KPG1 140924Z 02011KT 29/16 A3002 RMK A01 T02880155  RH  044%=      5-min Rain = 0
KPG1 140925Z 02010KT 29/16 A3002 RMK A01 T02870155  RH  045%=      5-min Rain = 0
KPG1 140926Z 02010KT 29/16 A3002 RMK A01 T02860156  RH  045%=      5-min Rain = 0
KPG1 140927Z 02011KT 29/16 A3002 RMK A01 T02850156  RH  045%=      5-min Rain = 0
KPG1 140928Z 01012KT 29/16 A3002 RMK A01 T02850155  RH  045%=      5-min Rain = 0
KPG1 140929Z 01012KT 29/15 A3002 RMK A01 T02850154  RH  045%=      5-min Rain = 0
KPG1 140930Z 01011KT 29/15 A3002 RMK A01 T02850154  RH  045%=      5-min Rain = 0
KPG1 140931Z 01010KT 29/15 A3002 RMK A01 T02850154  RH  045%=      5-min Rain = 0
KPG1 140932Z 02011KT 29/16 A3002 RMK A01 T02850157  RH  046%=      5-min Rain = 0
KPG1 140933Z 02011KT 28/16 A3002 RMK A01 T02830159  RH  047%=      5-min Rain = 0
KPG1 140934Z 02011KT 28/16 A3002 RMK A01 T02810156  RH  047%=      5-min Rain = 0
KPG1 140935Z 03011KT 28/16 A3002 RMK A01 T02810157  RH  047%=      5-min Rain = 0
KPG1 140936Z 03011KT 28/16 A3002 RMK A01 T02810158  RH  047%=      5-min Rain = 0
KPG1 140937Z 03011KT 28/16 A3002 RMK A01 T02810155  RH  046%=      5-min Rain = 0
KPG1 140938Z 01012KT 28/15 A3002 RMK A01 T02820152  RH  045%=      5-min Rain = 0
KPG1 140939Z 01012KT 29/15 A3002 RMK A01 T02850150  RH  044%=      5-min Rain = 0
KPG1 140940Z 01013KT 29/15 A3002 RMK A01 T02880149  RH  043%=      5-min Rain = 0
KPG1 140941Z 01014KT 29/15 A3002 RMK A01 T02900148  RH  042%=      5-min Rain = 0
KPG1 140942Z 01013KT 29/15 A3002 RMK A01 T02910148  RH  042%=      5-min Rain = 0
KPG1 140943Z 01015KT 29/15 A3002 RMK A01 T02910148  RH  042%=      5-min Rain = 0
KPG1 140944Z 01014KT 29/15 A3002 RMK A01 T02910148  RH  042%=      5-min Rain = 0
KPG1 140945Z 00015KT 29/15 A3002 RMK A01 T02910148  RH  042%=      5-min Rain = 0
KPG1 140946Z 00014KT 29/15 A3002 RMK A01 T02910148  RH  042%=      5-min Rain = 0
KPG1 140947Z 36017KT 29/15 A3002 RMK A01 T02910148  RH  042%=      5-min Rain = 0
KPG1 140948Z 36015KT 29/15 A3002 RMK A01 T02910148  RH  042%=      5-min Rain = 0
KPG1 140949Z 00017KT 29/15 A3002 RMK A01 T02910148  RH  042%=      5-min Rain = 0
KPG1 140950Z 00016KT 29/15 A3002 RMK A01 T02910149  RH  042%=      5-min Rain = 0
KPG1 140951Z 36017KT 29/15 A3002 RMK A01 T02910149  RH  042%=      5-min Rain = 0
KPG1 140952Z 00016KT 29/15 A3002 RMK A01 T02900149  RH  042%=      5-min Rain = 0
KPG1 140953Z 01013KT 29/15 A3002 RMK A01 T02900149  RH  042%=      5-min Rain = 0
KPG1 140954Z 00015KT 29/15 A3002 RMK A01 T02900150  RH  043%=      5-min Rain = 0
KPG1 140955Z 00014KT 29/15 A3002 RMK A01 T02890150  RH  043%=      5-min Rain = 0
KPG1 140956Z 36015KT 29/15 A3002 RMK A01 T02890151  RH  043%=      5-min Rain = 0
KPG1 140957Z 01016KT 29/15 A3002 RMK A01 T02890151  RH  043%=      5-min Rain = 0
KPG1 140958Z 00015KT 29/15 A3002 RMK A01 T02880151  RH  043%=      5-min Rain = 0
KPG1 140959Z 00013KT 29/15 A3002 RMK A01 T02880151  RH  043%=      5-min Rain = 0
KPG1 141000Z 01015KT 29/15 A3002 RMK A01 T02880151  RH  043%=      5-min Rain = 0
KPG1 141001Z 01012KT 29/15 A3002 RMK A01 T02870151  RH  043%=      5-min Rain = 0
KPG1 141002Z 01014KT 29/15 A3002 RMK A01 T02870151  RH  044%=      5-min Rain = 0
KPG1 141003Z 01014KT 29/15 A3002 RMK A01 T02870151  RH  044%=      5-min Rain = 0
KPG1 141004Z 01014KT 29/15 A3002 RMK A01 T02870152  RH  044%=      5-min Rain = 0
KPG1 141005Z 01014KT 29/15 A3002 RMK A01 T02870151  RH  044%=      5-min Rain = 0
KPG1 141006Z 01014KT 29/15 A3002 RMK A01 T02870152  RH  044%=      5-min Rain = 0
KPG1 141007Z 01014KT 29/15 A3002 RMK A01 T02870152  RH  044%=      5-min Rain = 0
KPG1 141008Z 00013KT 29/15 A3002 RMK A01 T02880152  RH  044%=      5-min Rain = 0
KPG1 141009Z 01014KT 29/15 A3002 RMK A01 T02870152  RH  044%=      5-min Rain = 0
KPG1 141010Z 01014KT 29/15 A3002 RMK A01 T02880152  RH  044%=      5-min Rain = 0
KPG1 141011Z 00013KT 29/15 A3002 RMK A01 T02870152  RH  044%=      5-min Rain = 0
KPG1 141012Z 00014KT 29/15 A3002 RMK A01 T02870152  RH  044%=      5-min Rain = 0
KPG1 141013Z 36013KT 29/15 A3002 RMK A01 T02870152  RH  044%=      5-min Rain = 0
KPG1 141014Z 00013KT 29/15 A3002 RMK A01 T02870152  RH  044%=      5-min Rain = 0
KPG1 141015Z 01015KT 29/15 A3002 RMK A01 T02870152  RH  044%=      5-min Rain = 0
KPG1 141016Z 01014KT 29/15 A3002 RMK A01 T02870152  RH  044%=      5-min Rain = 0
KPG1 141017Z 01015KT 29/15 A3002 RMK A01 T02870152  RH  044%=      5-min Rain = 0
KPG1 141018Z 01013KT 29/15 A3002 RMK A01 T02870152  RH  044%=      5-min Rain = 0
KPG1 141019Z 01014KT 29/15 A3002 RMK A01 T02870153  RH  044%=      5-min Rain = 0
KPG1 141020Z 02014KT 29/15 A3002 RMK A01 T02870153  RH  044%=      5-min Rain = 0
KPG1 141021Z 01015KT 29/15 A3002 RMK A01 T02860153  RH  044%=      5-min Rain = 0
KPG1 141022Z 02014KT 29/15 A3002 RMK A01 T02860153  RH  044%=      5-min Rain = 0
KPG1 141023Z 02015KT 29/15 A3002 RMK A01 T02860153  RH  044%=      5-min Rain = 0
KPG1 141024Z 01013KT 29/15 A3002 RMK A01 T02860153  RH  044%=      5-min Rain = 0
KPG1 141025Z 02011KT 29/15 A3002 RMK A01 T02860153  RH  044%=      5-min Rain = 0
KPG1 141026Z 01013KT 29/15 A3002 RMK A01 T02860153  RH  045%=      5-min Rain = 0
KPG1 141027Z 01013KT 29/15 A3002 RMK A01 T02860154  RH  045%=      5-min Rain = 0
KPG1 141028Z 01013KT 29/15 A3002 RMK A01 T02850153  RH  045%=      5-min Rain = 0
KPG1 141029Z 01015KT 29/15 A3002 RMK A01 T02860154  RH  045%=      5-min Rain = 0
KPG1 141030Z 01014KT 29/15 A3002 RMK A01 T02850154  RH  045%=      5-min Rain = 0
KPG1 141031Z 01014KT 28/15 A3002 RMK A01 T02840154  RH  045%=      5-min Rain = 0
KPG1 141032Z 01013KT 28/16 A3002 RMK A01 T02840155  RH  045%=      5-min Rain = 0
KPG1 141033Z 00016KT 28/15 A3002 RMK A01 T02840154  RH  045%=      5-min Rain = 0
KPG1 141034Z 01016KT 28/16 A3002 RMK A01 T02840155  RH  045%=      5-min Rain = 0
KPG1 141035Z 01016KT 28/16 A3002 RMK A01 T02840155  RH  045%=      5-min Rain = 0
KPG1 141036Z 01016KT 28/16 A3002 RMK A01 T02840155  RH  046%=      5-min Rain = 0
KPG1 141037Z 01014KT 28/16 A3002 RMK A01 T02840155  RH  046%=      5-min Rain = 0
KPG1 141038Z 02016KT 28/16 A3002 RMK A01 T02830155  RH  046%=      5-min Rain = 0
KPG1 141039Z 02014KT 28/16 A3002 RMK A01 T02830156  RH  046%=      5-min Rain = 0
KPG1 141040Z 02016KT 28/16 A3002 RMK A01 T02830155  RH  046%=      5-min Rain = 0
KPG1 141041Z 02016KT 28/16 A3002 RMK A01 T02830156  RH  046%=      5-min Rain = 0
KPG1 141042Z 02016KT 28/16 A3002 RMK A01 T02830156  RH  046%=      5-min Rain = 0
KPG1 141043Z 02016KT 28/16 A3002 RMK A01 T02820156  RH  046%=      5-min Rain = 0
KPG1 141044Z 02015KT 28/16 A3002 RMK A01 T02830157  RH  046%=      5-min Rain = 0
KPG1 141045Z 02015KT 28/16 A3002 RMK A01 T02820156  RH  046%=      5-min Rain = 0
KPG1 141046Z 02013KT 28/16 A3002 RMK A01 T02820156  RH  046%=      5-min Rain = 0
KPG1 141047Z 01015KT 28/16 A3002 RMK A01 T02820156  RH  046%=      5-min Rain = 0
KPG1 141048Z 01015KT 28/16 A3002 RMK A01 T02820156  RH  046%=      5-min Rain = 0
KPG1 141049Z 02016KT 28/16 A3002 RMK A01 T02820156  RH  046%=      5-min Rain = 0
KPG1 141050Z 02014G20KT 28/16 A3002 RMK A01 T02830156  RH  046%=      5-min Rain = 0
KPG1 141051Z 01014KT 28/16 A3002 RMK A01 T02830156  RH  046%=      5-min Rain = 0
KPG1 141052Z 00014KT 28/16 A3002 RMK A01 T02830156  RH  046%=      5-min Rain = 0
KPG1 141053Z 01014KT 28/16 A3002 RMK A01 T02830156  RH  046%=      5-min Rain = 0
KPG1 141054Z 01011KT 28/16 A3002 RMK A01 T02830156  RH  046%=      5-min Rain = 0
KPG1 141055Z 00013KT 28/16 A3002 RMK A01 T02830156  RH  046%=      5-min Rain = 0
KPG1 141056Z 00013KT 28/16 A3002 RMK A01 T02820156  RH  046%=      5-min Rain = 0
KPG1 141057Z 01016KT 28/16 A3002 RMK A01 T02810156  RH  046%=      5-min Rain = 0
KPG1 141058Z 02013KT 28/16 A3002 RMK A01 T02810157  RH  047%=      5-min Rain = 0
KPG1 141059Z 01013KT 28/16 A3002 RMK A01 T02810157  RH  047%=      5-min Rain = 0
KPG1 141100Z 01013KT 28/16 A3002 RMK A01 T02810157  RH  047%=      5-min Rain = 0
KPG1 141101Z 01013KT 28/16 A3002 RMK A01 T02810157  RH  047%=      5-min Rain = 0
KPG1 141102Z 01014KT 28/16 A3002 RMK A01 T02800157  RH  047%=      5-min Rain = 0
KPG1 141103Z 01013KT 28/16 A3002 RMK A01 T02800158  RH  047%=      5-min Rain = 0
KPG1 141104Z 01013KT 28/16 A3002 RMK A01 T02800158  RH  048%=      5-min Rain = 0
KPG1 141105Z 01015KT 28/16 A3002 RMK A01 T02790158  RH  048%=      5-min Rain = 0
KPG1 141106Z 01014KT 28/16 A3002 RMK A01 T02780158  RH  048%=      5-min Rain = 0
KPG1 141107Z 00014KT 28/16 A3002 RMK A01 T02780159  RH  048%=      5-min Rain = 0
KPG1 141108Z 02013KT 28/16 A3002 RMK A01 T02780159  RH  048%=      5-min Rain = 0
KPG1 141109Z 01013KT 28/16 A3002 RMK A01 T02780159  RH  048%=      5-min Rain = 0
KPG1 141110Z 01014KT 28/16 A3002 RMK A01 T02780160  RH  049%=      5-min Rain = 0
KPG1 141111Z 01013KT 28/16 A3002 RMK A01 T02770159  RH  049%=      5-min Rain = 0
KPG1 141112Z 01011KT 28/16 A3002 RMK A01 T02770159  RH  049%=      5-min Rain = 0
KPG1 141113Z 01012KT 28/16 A3002 RMK A01 T02770160  RH  049%=      5-min Rain = 0
KPG1 141114Z 01014KT 28/16 A3002 RMK A01 T02770160  RH  049%=      5-min Rain = 0
KPG1 141115Z 01012KT 28/16 A3002 RMK A01 T02770160  RH  049%=      5-min Rain = 0
KPG1 141116Z 01013KT 28/16 A3002 RMK A01 T02770160  RH  049%=      5-min Rain = 0
KPG1 141117Z 00013KT 28/16 A3002 RMK A01 T02770161  RH  049%=      5-min Rain = 0
KPG1 141118Z 00013KT 28/16 A3002 RMK A01 T02770161  RH  049%=      5-min Rain = 0
KPG1 141119Z 01014KT 28/16 A3002 RMK A01 T02770160  RH  049%=      5-min Rain = 0
KPG1 141120Z 01013KT 28/16 A3002 RMK A01 T02770160  RH  049%=      5-min Rain = 0
KPG1 141121Z 01012KT 28/16 A3002 RMK A01 T02770161  RH  049%=      5-min Rain = 0
KPG1 141122Z 00013KT 28/16 A3002 RMK A01 T02770161  RH  049%=      5-min Rain = 0
KPG1 141123Z 01012KT 28/16 A3002 RMK A01 T02770162  RH  049%=      5-min Rain = 0
KPG1 141124Z 01013KT 28/16 A3003 RMK A01 T02770162  RH  050%=      5-min Rain = 0
KPG1 141125Z 02013KT 28/16 A3003 RMK A01 T02770163  RH  050%=      5-min Rain = 0
KPG1 141126Z 02015KT 28/16 A3003 RMK A01 T02760163  RH  050%=      5-min Rain = 0
KPG1 141127Z 02012KT 28/16 A3003 RMK A01 T02760163  RH  050%=      5-min Rain = 0
KPG1 141128Z 01012KT 28/16 A3003 RMK A01 T02760163  RH  050%=      5-min Rain = 0
KPG1 141129Z 01011KT 28/16 A3003 RMK A01 T02760163  RH  050%=      5-min Rain = 0
KPG1 141130Z 00013KT 28/16 A3003 RMK A01 T02760163  RH  050%=      5-min Rain = 0
KPG1 141131Z 01013KT 28/16 A3003 RMK A01 T02760163  RH  050%=      5-min Rain = 0
KPG1 141132Z 02012KT 28/16 A3003 RMK A01 T02760164  RH  050%=      5-min Rain = 0
KPG1 141133Z 00012KT 28/16 A3003 RMK A01 T02760164  RH  051%=      5-min Rain = 0
KPG1 141134Z 02013KT 28/17 A3003 RMK A01 T02760165  RH  051%=      5-min Rain = 0
KPG1 141135Z 02015KT 28/17 A3003 RMK A01 T02760166  RH  051%=      5-min Rain = 0
KPG1 141136Z 02013KT 28/17 A3003 RMK A01 T02760166  RH  051%=      5-min Rain = 0
KPG1 141137Z 02014KT 28/17 A3003 RMK A01 T02760166  RH  051%=      5-min Rain = 0
KPG1 141138Z 02015KT 28/17 A3003 RMK A01 T02760166  RH  051%=      5-min Rain = 0
KPG1 141139Z 02014KT 28/17 A3003 RMK A01 T02750167  RH  052%=      5-min Rain = 0
KPG1 141140Z 02014KT 28/17 A3003 RMK A01 T02750167  RH  052%=      5-min Rain = 0
KPG1 141141Z 02013KT 28/17 A3003 RMK A01 T02750167  RH  052%=      5-min Rain = 0
KPG1 141142Z 02014KT 28/17 A3003 RMK A01 T02750167  RH  052%=      5-min Rain = 0
KPG1 141143Z 02013KT 28/17 A3003 RMK A01 T02750167  RH  052%=      5-min Rain = 0
KPG1 141144Z 02013KT 28/17 A3004 RMK A01 T02750168  RH  052%=      5-min Rain = 0
KPG1 141145Z 02012KT 27/17 A3004 RMK A01 T02740168  RH  052%=      5-min Rain = 0
KPG1 141146Z 01011KT 27/17 A3004 RMK A01 T02740168  RH  052%=      5-min Rain = 0
KPG1 141147Z 01012KT 27/17 A3004 RMK A01 T02730168  RH  053%=      5-min Rain = 0
KPG1 141148Z 01013KT 27/17 A3004 RMK A01 T02730169  RH  053%=      5-min Rain = 0
KPG1 141149Z 02013KT 27/17 A3004 RMK A01 T02730170  RH  053%=      5-min Rain = 0
KPG1 141150Z 01014KT 27/17 A3004 RMK A01 T02730171  RH  054%=      5-min Rain = 0
KPG1 141151Z 01014KT 27/17 A3004 RMK A01 T02730172  RH  054%=      5-min Rain = 0
KPG1 141152Z 01014KT 27/17 A3004 RMK A01 T02730171  RH  054%=      5-min Rain = 0
KPG1 141153Z 01014KT 27/17 A3004 RMK A01 T02730172  RH  054%=      5-min Rain = 0
KPG1 141154Z 02012KT 27/17 A3004 RMK A01 T02720172  RH  054%=      5-min Rain = 0
KPG1 141155Z 02013KT 27/17 A3004 RMK A01 T02720173  RH  054%=      5-min Rain = 0
KPG1 141156Z 02012KT 27/17 A3004 RMK A01 T02720173  RH  055%=      5-min Rain = 0
KPG1 141157Z 02011KT 27/17 A3004 RMK A01 T02720173  RH  055%=      5-min Rain = 0
KPG1 141158Z 03012KT 27/17 A3004 RMK A01 T02720173  RH  055%=      5-min Rain = 0
KPG1 141159Z 01011KT 27/17 A3004 RMK A01 T02720173  RH  055%=      5-min Rain = 0
KPG1 141200Z 01013KT 27/17 A3004 RMK A01 T02720174  RH  055%=      5-min Rain = 0
KPG1 141201Z 02012KT 27/17 A3004 RMK A01 T02720174  RH  055%=      5-min Rain = 0
KPG1 141202Z 02012KT 27/17 A3004 RMK A01 T02720174  RH  055%=      5-min Rain = 0
KPG1 141203Z 02013KT 27/17 A3004 RMK A01 T02720174  RH  055%=      5-min Rain = 0
KPG1 141204Z 02014KT 27/17 A3004 RMK A01 T02720174  RH  055%=      5-min Rain = 0
KPG1 141205Z 02014KT 27/17 A3004 RMK A01 T02720174  RH  055%=      5-min Rain = 0
KPG1 141206Z 02014KT 27/18 A3004 RMK A01 T02720175  RH  055%=      5-min Rain = 0
KPG1 141207Z 02013KT 27/18 A3004 RMK A01 T02720175  RH  055%=      5-min Rain = 0
KPG1 141208Z 02013KT 27/18 A3004 RMK A01 T02720176  RH  056%=      5-min Rain = 0
KPG1 141209Z 02013KT 27/18 A3004 RMK A01 T02720176  RH  056%=      5-min Rain = 0
KPG1 141210Z 02013KT 27/18 A3004 RMK A01 T02720176  RH  056%=      5-min Rain = 0
KPG1 141211Z 02014KT 27/18 A3004 RMK A01 T02720176  RH  056%=      5-min Rain = 0
KPG1 141212Z 02013KT 27/18 A3004 RMK A01 T02720176  RH  056%=      5-min Rain = 0
KPG1 141213Z 02013KT 27/18 A3004 RMK A01 T02710176  RH  056%=      5-min Rain = 0
KPG1 141214Z 02014KT 27/18 A3005 RMK A01 T02710176  RH  056%=      5-min Rain = 0
KPG1 141215Z 03012KT 27/18 A3005 RMK A01 T02710176  RH  056%=      5-min Rain = 0
KPG1 141216Z 03012KT 27/18 A3005 RMK A01 T02710176  RH  056%=      5-min Rain = 0
KPG1 141217Z 02012KT 27/18 A3005 RMK A01 T02700175  RH  056%=      5-min Rain = 0
KPG1 141218Z 02013KT 27/18 A3005 RMK A01 T02700175  RH  056%=      5-min Rain = 0
KPG1 141219Z 01012KT 27/17 A3005 RMK A01 T02700174  RH  056%=      5-min Rain = 0
KPG1 141220Z 01012KT 27/17 A3005 RMK A01 T02700174  RH  056%=      5-min Rain = 0
KPG1 141221Z 02010KT 27/17 A3005 RMK A01 T02700174  RH  056%=      5-min Rain = 0
KPG1 141222Z 01011KT 27/18 A3005 RMK A01 T02700175  RH  056%=      5-min Rain = 0
KPG1 141223Z 00012KT 27/18 A3005 RMK A01 T02700175  RH  056%=      5-min Rain = 0
KPG1 141224Z 01012KT 27/18 A3005 RMK A01 T02700176  RH  056%=      5-min Rain = 0
KPG1 141225Z 01013KT 27/18 A3005 RMK A01 T02700176  RH  056%=      5-min Rain = 0
KPG1 141226Z 01013KT 27/18 A3005 RMK A01 T02700177  RH  057%=      5-min Rain = 0
KPG1 141227Z 01013KT 27/18 A3005 RMK A01 T02700177  RH  057%=      5-min Rain = 0
KPG1 141228Z 00013KT 27/18 A3005 RMK A01 T02700178  RH  057%=      5-min Rain = 0
KPG1 141229Z 01013KT 27/18 A3005 RMK A01 T02700178  RH  057%=      5-min Rain = 0
KPG1 141230Z 00014KT 27/18 A3005 RMK A01 T02700178  RH  057%=      5-min Rain = 0
KPG1 141231Z 00014KT 27/18 A3005 RMK A01 T02700178  RH  057%=      5-min Rain = 0
KPG1 141232Z 01013KT 27/18 A3005 RMK A01 T02700179  RH  057%=      5-min Rain = 0
KPG1 141233Z 01014KT 27/18 A3006 RMK A01 T02700178  RH  057%=      5-min Rain = 0
KPG1 141234Z 01015KT 27/18 A3006 RMK A01 T02690178  RH  057%=      5-min Rain = 0
KPG1 141235Z 01013KT 27/18 A3006 RMK A01 T02690178  RH  057%=      5-min Rain = 0
KPG1 141236Z 01014KT 27/18 A3006 RMK A01 T02690178  RH  057%=      5-min Rain = 0
KPG1 141237Z 01013KT 27/18 A3006 RMK A01 T02700179  RH  058%=      5-min Rain = 0
KPG1 141238Z 01013KT 27/18 A3006 RMK A01 T02690179  RH  058%=      5-min Rain = 0
KPG1 141239Z 00014KT 27/18 A3006 RMK A01 T02700179  RH  058%=      5-min Rain = 0
KPG1 141240Z 01013KT 27/18 A3006 RMK A01 T02700179  RH  058%=      5-min Rain = 0
KPG1 141241Z 01014KT 27/18 A3006 RMK A01 T02700179  RH  058%=      5-min Rain = 0
KPG1 141242Z 01015KT 27/18 A3006 RMK A01 T02690179  RH  058%=      5-min Rain = 0
KPG1 141243Z 01014KT 27/18 A3006 RMK A01 T02700179  RH  058%=      5-min Rain = 0
KPG1 141244Z 01014KT 27/18 A3006 RMK A01 T02690179  RH  058%=      5-min Rain = 0
KPG1 141245Z 01016KT 27/18 A3006 RMK A01 T02690179  RH  058%=      5-min Rain = 0
KPG1 141246Z 01013KT 27/18 A3006 RMK A01 T02700179  RH  058%=      5-min Rain = 0
KPG1 141247Z 01014KT 27/18 A3006 RMK A01 T02690179  RH  058%=      5-min Rain = 0
KPG1 141248Z 01015KT 27/18 A3006 RMK A01 T02700180  RH  058%=      5-min Rain = 0
KPG1 141249Z 01015KT 27/18 A3006 RMK A01 T02700180  RH  058%=      5-min Rain = 0
KPG1 141250Z 01013KT 27/18 A3006 RMK A01 T02700181  RH  058%=      5-min Rain = 0
KPG1 141251Z 01014KT 27/18 A3006 RMK A01 T02700181  RH  058%=      5-min Rain = 0
KPG1 141252Z 01015KT 27/18 A3006 RMK A01 T02700181  RH  058%=      5-min Rain = 0
KPG1 141253Z 00016KT 27/18 A3006 RMK A01 T02700180  RH  058%=      5-min Rain = 0
KPG1 141254Z 01015KT 27/18 A3006 RMK A01 T02700181  RH  058%=      5-min Rain = 0
KPG1 141255Z 01012KT 27/18 A3006 RMK A01 T02700180  RH  058%=      5-min Rain = 0
KPG1 141256Z 01013KT 27/18 A3006 RMK A01 T02700181  RH  058%=      5-min Rain = 0
KPG1 141257Z 01012KT 27/18 A3006 RMK A01 T02700180  RH  058%=      5-min Rain = 0
KPG1 141258Z 01012KT 27/18 A3006 RMK A01 T02700181  RH  058%=      5-min Rain = 0
KPG1 141259Z 01013KT 27/18 A3006 RMK A01 T02700181  RH  058%=      5-min Rain = 0
KPG1 141300Z 01013KT 27/18 A3006 RMK A01 T02700180  RH  058%=      5-min Rain = 0
KPG1 141301Z 01012KT 27/18 A3006 RMK A01 T02700181  RH  058%=      5-min Rain = 0
KPG1 141302Z 01014KT 27/18 A3006 RMK A01 T02700182  RH  058%=      5-min Rain = 0
KPG1 141303Z 02013KT 27/18 A3006 RMK A01 T02700183  RH  059%=      5-min Rain = 0
KPG1 141304Z 02012KT 27/18 A3006 RMK A01 T02700183  RH  059%=      5-min Rain = 0
KPG1 141305Z 02012KT 27/18 A3006 RMK A01 T02690183  RH  059%=      5-min Rain = 0
KPG1 141306Z 01013KT 27/18 A3006 RMK A01 T02690183  RH  059%=      5-min Rain = 0
KPG1 141307Z 01012KT 27/18 A3006 RMK A01 T02690183  RH  059%=      5-min Rain = 0
KPG1 141308Z 02013KT 27/18 A3006 RMK A01 T02690183  RH  059%=      5-min Rain = 0
KPG1 141309Z 02013KT 27/18 A3006 RMK A01 T02690183  RH  059%=      5-min Rain = 0
KPG1 141310Z 02013KT 27/18 A3006 RMK A01 T02690184  RH  060%=      5-min Rain = 0
KPG1 141311Z 02014KT 27/18 A3006 RMK A01 T02690184  RH  060%=      5-min Rain = 0
KPG1 141312Z 02014KT 27/19 A3006 RMK A01 T02690185  RH  060%=      5-min Rain = 0
KPG1 141313Z 02014KT 27/19 A3006 RMK A01 T02690185  RH  060%=      5-min Rain = 0
KPG1 141314Z 02013KT 27/19 A3006 RMK A01 T02690185  RH  060%=      5-min Rain = 0
KPG1 141315Z 02012KT 27/19 A3007 RMK A01 T02690185  RH  060%=      5-min Rain = 0
KPG1 141316Z 02015KT 27/19 A3007 RMK A01 T02690185  RH  060%=      5-min Rain = 0
KPG1 141317Z 02012KT 27/19 A3007 RMK A01 T02690185  RH  060%=      5-min Rain = 0
KPG1 141318Z 02011KT 27/19 A3007 RMK A01 T02690185  RH  060%=      5-min Rain = 0
KPG1 141319Z 02012KT 27/19 A3007 RMK A01 T02690185  RH  060%=      5-min Rain = 0
KPG1 141320Z 02011KT 27/19 A3007 RMK A01 T02690185  RH  060%=      5-min Rain = 0
KPG1 141321Z 02012KT 27/19 A3007 RMK A01 T02690185  RH  060%=      5-min Rain = 0
KPG1 141322Z 02013KT 27/18 A3007 RMK A01 T02690184  RH  060%=      5-min Rain = 0
KPG1 141323Z 02013KT 27/18 A3007 RMK A01 T02690184  RH  060%=      5-min Rain = 0
KPG1 141324Z 02013KT 27/18 A3007 RMK A01 T02690183  RH  059%=      5-min Rain = 0
KPG1 141325Z 02011KT 27/18 A3007 RMK A01 T02690183  RH  059%=      5-min Rain = 0
KPG1 141326Z 02011KT 27/18 A3007 RMK A01 T02690183  RH  059%=      5-min Rain = 0
KPG1 141327Z 02010KT 27/18 A3007 RMK A01 T02690183  RH  059%=      5-min Rain = 0
KPG1 141328Z 02011KT 27/18 A3007 RMK A01 T02700184  RH  059%=      5-min Rain = 0
KPG1 141329Z 02012KT 27/18 A3007 RMK A01 T02700183  RH  059%=      5-min Rain = 0
KPG1 141330Z 02012KT 27/18 A3007 RMK A01 T02700183  RH  059%=      5-min Rain = 0
KPG1 141331Z 03011KT 27/18 A3007 RMK A01 T02700183  RH  059%=      5-min Rain = 0
KPG1 141332Z 02012KT 27/18 A3007 RMK A01 T02700182  RH  058%=      5-min Rain = 0
KPG1 141333Z 03012KT 27/18 A3007 RMK A01 T02700182  RH  058%=      5-min Rain = 0
KPG1 141334Z 03012KT 27/18 A3007 RMK A01 T02700181  RH  058%=      5-min Rain = 0
KPG1 141335Z 03011KT 27/18 A3007 RMK A01 T02700181  RH  058%=      5-min Rain = 0
KPG1 141336Z 03012KT 27/18 A3007 RMK A01 T02710182  RH  058%=      5-min Rain = 0
KPG1 141337Z 03012KT 27/18 A3007 RMK A01 T02710181  RH  058%=      5-min Rain = 0
KPG1 141338Z 03012KT 27/18 A3007 RMK A01 T02710181  RH  058%=      5-min Rain = 0
KPG1 141339Z 02010KT 27/18 A3007 RMK A01 T02710181  RH  058%=      5-min Rain = 0
KPG1 141340Z 02010KT 27/18 A3007 RMK A01 T02710181  RH  058%=      5-min Rain = 0
KPG1 141341Z 03011KT 27/18 A3007 RMK A01 T02710181  RH  058%=      5-min Rain = 0
KPG1 141342Z 03013KT 27/18 A3007 RMK A01 T02710180  RH  057%=      5-min Rain = 0
KPG1 141343Z 02012KT 27/18 A3007 RMK A01 T02710180  RH  057%=      5-min Rain = 0
KPG1 141344Z 02011KT 27/18 A3007 RMK A01 T02710180  RH  057%=      5-min Rain = 0
KPG1 141345Z 02012KT 27/18 A3007 RMK A01 T02710180  RH  057%=      5-min Rain = 0
KPG1 141346Z 02014KT 27/18 A3007 RMK A01 T02710180  RH  057%=      5-min Rain = 0
KPG1 141347Z 02013KT 27/18 A3007 RMK A01 T02710181  RH  058%=      5-min Rain = 0
KPG1 141348Z 01012KT 27/18 A3007 RMK A01 T02710182  RH  058%=      5-min Rain = 0
KPG1 141349Z 02012KT 27/18 A3007 RMK A01 T02710182  RH  058%=      5-min Rain = 0
KPG1 141350Z 02014KT 27/18 A3007 RMK A01 T02710182  RH  058%=      5-min Rain = 0
KPG1 141351Z 02012KT 27/18 A3007 RMK A01 T02710182  RH  058%=      5-min Rain = 0
KPG1 141352Z 02013KT 27/18 A3007 RMK A01 T02710182  RH  058%=      5-min Rain = 0
KPG1 141353Z 02013KT 27/18 A3007 RMK A01 T02710183  RH  059%=      5-min Rain = 0
KPG1 141354Z 02012KT 27/18 A3008 RMK A01 T02710183  RH  058%=      5-min Rain = 0
KPG1 141355Z 02011KT 27/18 A3008 RMK A01 T02710184  RH  059%=      5-min Rain = 0
KPG1 141356Z 02012KT 27/18 A3008 RMK A01 T02710184  RH  059%=      5-min Rain = 0
KPG1 141357Z 01010KT 27/18 A3008 RMK A01 T02710184  RH  059%=      5-min Rain = 0
KPG1 141358Z 02010G15KT 27/19 A3008 RMK A01 T02720185  RH  059%=      5-min Rain = 0
KPG1 141359Z 01011KT 27/18 A3008 RMK A01 T02720184  RH  059%=      5-min Rain = 0
KPG1 141400Z 02012KT 27/19 A3008 RMK A01 T02720185  RH  059%=      5-min Rain = 0
KPG1 141401Z 02012KT 27/19 A3008 RMK A01 T02720185  RH  059%=      5-min Rain = 0
KPG1 141402Z 02011KT 27/19 A3008 RMK A01 T02730185  RH  059%=      5-min Rain = 0
KPG1 141403Z 02012KT 27/19 A3008 RMK A01 T02720185  RH  059%=      5-min Rain = 0
KPG1 141404Z 02013KT 27/19 A3008 RMK A01 T02720186  RH  059%=      5-min Rain = 0
KPG1 141405Z 02013KT 27/19 A3008 RMK A01 T02720186  RH  059%=      5-min Rain = 0
KPG1 141406Z 02012KT 27/19 A3008 RMK A01 T02720186  RH  059%=      5-min Rain = 0
KPG1 141407Z 02012KT 27/19 A3008 RMK A01 T02730187  RH  059%=      5-min Rain = 0
KPG1 141408Z 02014KT 27/19 A3008 RMK A01 T02730186  RH  059%=      5-min Rain = 0
KPG1 141409Z 02013KT 27/19 A3008 RMK A01 T02720186  RH  059%=      5-min Rain = 0
KPG1 141410Z 02013KT 27/19 A3008 RMK A01 T02730187  RH  059%=      5-min Rain = 0
KPG1 141411Z 02013KT 27/19 A3008 RMK A01 T02730187  RH  059%=      5-min Rain = 0
KPG1 141412Z 02011KT 27/19 A3008 RMK A01 T02730187  RH  059%=      5-min Rain = 0
KPG1 141413Z 02011KT 27/19 A3008 RMK A01 T02730187  RH  059%=      5-min Rain = 0
KPG1 141414Z 02012KT 27/19 A3008 RMK A01 T02730186  RH  059%=      5-min Rain = 0
KPG1 141415Z 02011KT 27/19 A3008 RMK A01 T02730186  RH  059%=      5-min Rain = 0
KPG1 141416Z 03012KT 27/19 A3008 RMK A01 T02730186  RH  059%=      5-min Rain = 0
KPG1 141417Z 03012KT 27/19 A3008 RMK A01 T02740185  RH  058%=      5-min Rain = 0
KPG1 141418Z 02012KT 27/19 A3008 RMK A01 T02740185  RH  058%=      5-min Rain = 0
KPG1 141419Z 02011KT 27/18 A3009 RMK A01 T02730184  RH  058%=      5-min Rain = 0
KPG1 141420Z 02012KT 27/18 A3009 RMK A01 T02740184  RH  058%=      5-min Rain = 0
KPG1 141421Z 02013KT 27/18 A3009 RMK A01 T02730181  RH  057%=      5-min Rain = 0
KPG1 141422Z 02011KT 27/18 A3009 RMK A01 T02740180  RH  057%=      5-min Rain = 0
KPG1 141423Z 02011KT 27/18 A3009 RMK A01 T02740181  RH  057%=      5-min Rain = 0
KPG1 141424Z 02011KT 27/18 A3009 RMK A01 T02740181  RH  057%=      5-min Rain = 0
KPG1 141425Z 02010KT 27/18 A3009 RMK A01 T02740180  RH  056%=      5-min Rain = 0
KPG1 141426Z 02010KT 28/18 A3009 RMK A01 T02750179  RH  056%=      5-min Rain = 0
KPG1 141427Z 02010KT 27/18 A3009 RMK A01 T02740179  RH  056%=      5-min Rain = 0
KPG1 141428Z 02012KT 28/18 A3009 RMK A01 T02750178  RH  056%=      5-min Rain = 0
KPG1 141429Z 03012KT 28/18 A3009 RMK A01 T02750177  RH  055%=      5-min Rain = 0
KPG1 141430Z 02012KT 27/18 A3009 RMK A01 T02740177  RH  055%=      5-min Rain = 0
KPG1 141431Z 02012KT 27/18 A3009 RMK A01 T02740178  RH  056%=      5-min Rain = 0
KPG1 141432Z 02013KT 28/18 A3009 RMK A01 T02750178  RH  056%=      5-min Rain = 0
KPG1 141433Z 02013KT 28/18 A3009 RMK A01 T02750178  RH  056%=      5-min Rain = 0
KPG1 141434Z 02013KT 28/18 A3009 RMK A01 T02750178  RH  056%=      5-min Rain = 0
KPG1 141435Z 02012KT 28/18 A3009 RMK A01 T02750179  RH  056%=      5-min Rain = 0
KPG1 141436Z 02013KT 27/18 A3009 RMK A01 T02740182  RH  057%=      5-min Rain = 0
KPG1 141437Z 02012KT 28/18 A3009 RMK A01 T02750183  RH  057%=      5-min Rain = 0
KPG1 141438Z 02012KT 27/18 A3009 RMK A01 T02740183  RH  058%=      5-min Rain = 0
KPG1 141439Z 02012KT 28/18 A3009 RMK A01 T02750184  RH  058%=      5-min Rain = 0
KPG1 141440Z 02015KT 28/19 A3009 RMK A01 T02750187  RH  059%=      5-min Rain = 0
KPG1 141441Z 02013KT 27/19 A3009 RMK A01 T02740186  RH  058%=      5-min Rain = 0
KPG1 141442Z 02014KT 27/19 A3009 RMK A01 T02740185  RH  058%=      5-min Rain = 0
KPG1 141443Z 02014KT 27/19 A3009 RMK A01 T02740185  RH  058%=      5-min Rain = 0
KPG1 141444Z 02013KT 27/19 A3009 RMK A01 T02740187  RH  059%=      5-min Rain = 0
KPG1 141445Z 03013KT 27/19 A301 RMK A01 T02740186  RH  059%=      5-min Rain = 0
KPG1 141446Z 02010KT 27/19 A301 RMK A01 T02740186  RH  059%=      5-min Rain = 0
KPG1 141447Z 01012KT 27/19 A301 RMK A01 T02740186  RH  059%=      5-min Rain = 0
KPG1 141448Z 02012KT 27/19 A301 RMK A01 T02740187  RH  059%=      5-min Rain = 0
KPG1 141449Z 02012KT 27/19 A301 RMK A01 T02740188  RH  059%=      5-min Rain = 0
KPG1 141450Z 02012KT 27/19 A301 RMK A01 T02740187  RH  059%=      5-min Rain = 0
KPG1 141451Z 01012KT 27/19 A301 RMK A01 T02740187  RH  059%=      5-min Rain = 0
KPG1 141452Z 01010KT 27/19 A301 RMK A01 T02740187  RH  059%=      5-min Rain = 0
KPG1 141453Z 02011KT 27/19 A301 RMK A01 T02740187  RH  059%=      5-min Rain = 0
KPG1 141454Z 03010KT 27/19 A301 RMK A01 T02740187  RH  059%=      5-min Rain = 0
KPG1 141455Z 03012KT 27/19 A301 RMK A01 T02740187  RH  059%=      5-min Rain = 0
KPG1 141456Z 03010KT 27/19 A301 RMK A01 T02740186  RH  059%=      5-min Rain = 0
KPG1 141457Z 04011KT 27/19 A301 RMK A01 T02740186  RH  059%=      5-min Rain = 0
KPG1 141458Z 03010KT 27/19 A301 RMK A01 T02740186  RH  059%=      5-min Rain = 0
KPG1 141459Z 03009KT 27/19 A301 RMK A01 T02740187  RH  059%=      5-min Rain = 0
KPG1 141500Z 03008KT 27/19 A301 RMK A01 T02740187  RH  059%=      5-min Rain = 0
KPG1 141501Z 02010KT 28/19 A301 RMK A01 T02750188  RH  059%=      5-min Rain = 0
KPG1 141502Z 02011KT 28/19 A3011 RMK A01 T02750187  RH  059%=      5-min Rain = 0
KPG1 141503Z 02011KT 28/19 A3011 RMK A01 T02750187  RH  059%=      5-min Rain = 0
KPG1 141504Z 03011KT 28/19 A3011 RMK A01 T02750188  RH  059%=      5-min Rain = 0
KPG1 141505Z 03011KT 27/19 A3011 RMK A01 T02740188  RH  059%=      5-min Rain = 0
KPG1 141506Z 02010KT 27/19 A3011 RMK A01 T02740188  RH  059%=      5-min Rain = 0
KPG1 141507Z 03008KT 27/19 A3011 RMK A01 T02740189  RH  060%=      5-min Rain = 0
KPG1 141508Z 02010KT 27/19 A3011 RMK A01 T02740189  RH  060%=      5-min Rain = 0
KPG1 141509Z 02011KT 27/19 A3011 RMK A01 T02740189  RH  060%=      5-min Rain = 0
KPG1 141510Z 03009KT 27/19 A3011 RMK A01 T02740189  RH  060%=      5-min Rain = 0
KPG1 141511Z 03008KT 27/19 A3011 RMK A01 T02740190  RH  060%=      5-min Rain = 0
KPG1 141512Z 03009KT 27/19 A3011 RMK A01 T02740189  RH  060%=      5-min Rain = 0
KPG1 141513Z 03009KT 27/19 A3011 RMK A01 T02740190  RH  060%=      5-min Rain = 0
KPG1 141514Z 03010KT 27/19 A3011 RMK A01 T02740189  RH  060%=      5-min Rain = 0
KPG1 141515Z 03011KT 27/19 A3011 RMK A01 T02740189  RH  060%=      5-min Rain = 0
KPG1 141516Z 02009KT 27/19 A3011 RMK A01 T02730189  RH  060%=      5-min Rain = 0
KPG1 141517Z 02011KT 27/19 A3011 RMK A01 T02740190  RH  060%=      5-min Rain = 0
KPG1 141518Z 02010KT 27/19 A3011 RMK A01 T02740190  RH  060%=      5-min Rain = 0
KPG1 141519Z 02010KT 27/19 A3011 RMK A01 T02740190  RH  060%=      5-min Rain = 0
KPG1 141520Z 03010KT 27/19 A3011 RMK A01 T02730189  RH  060%=      5-min Rain = 0
KPG1 141521Z 02010KT 27/19 A3011 RMK A01 T02730189  RH  060%=      5-min Rain = 0
KPG1 141522Z 03008KT 27/19 A3011 RMK A01 T02730189  RH  060%=      5-min Rain = 0
KPG1 141523Z 02008KT 27/19 A3011 RMK A01 T02730189  RH  060%=      5-min Rain = 0
KPG1 141524Z 02007KT 27/19 A3011 RMK A01 T02740189  RH  060%=      5-min Rain = 0
KPG1 141525Z 03008KT 27/19 A3011 RMK A01 T02740189  RH  060%=      5-min Rain = 0
KPG1 141526Z 02009KT 27/19 A3011 RMK A01 T02730188  RH  060%=      5-min Rain = 0
KPG1 141527Z 01008KT 27/19 A3011 RMK A01 T02740189  RH  060%=      5-min Rain = 0
KPG1 141528Z 02006KT 27/19 A3011 RMK A01 T02740189  RH  060%=      5-min Rain = 0
KPG1 141529Z 02008KT 27/19 A3011 RMK A01 T02740189  RH  060%=      5-min Rain = 0
KPG1 141530Z 03008KT 27/19 A3011 RMK A01 T02740189  RH  060%=      5-min Rain = 0
KPG1 141531Z 03009KT 27/19 A3011 RMK A01 T02740189  RH  060%=      5-min Rain = 0
KPG1 141532Z 03007KT 27/19 A3011 RMK A01 T02740189  RH  060%=      5-min Rain = 0
KPG1 141533Z 02008KT 27/19 A3011 RMK A01 T02740189  RH  060%=      5-min Rain = 0
KPG1 141534Z 01007KT 27/19 A3011 RMK A01 T02740189  RH  060%=      5-min Rain = 0
KPG1 141535Z 02007KT 27/19 A3011 RMK A01 T02740189  RH  060%=      5-min Rain = 0
KPG1 141536Z 03008KT 27/19 A3011 RMK A01 T02740189  RH  060%=      5-min Rain = 0
KPG1 141537Z 02006KT 28/19 A3011 RMK A01 T02750189  RH  060%=      5-min Rain = 0
KPG1 141538Z 01007KT 28/19 A3011 RMK A01 T02750190  RH  060%=      5-min Rain = 0
KPG1 141539Z 02007KT 28/19 A3011 RMK A01 T02760190  RH  060%=      5-min Rain = 0
KPG1 141540Z 03007KT 28/19 A3011 RMK A01 T02760191  RH  060%=      5-min Rain = 0
KPG1 141541Z 02007KT 28/19 A3011 RMK A01 T02760191  RH  060%=      5-min Rain = 0
KPG1 141542Z 02008KT 28/19 A3011 RMK A01 T02760191  RH  060%=      5-min Rain = 0
KPG1 141543Z 02007KT 28/19 A3011 RMK A01 T02760191  RH  060%=      5-min Rain = 0
KPG1 141544Z 02007KT 28/19 A3011 RMK A01 T02760192  RH  060%=      5-min Rain = 0
KPG1 141545Z 02006KT 28/19 A3011 RMK A01 T02770192  RH  060%=      5-min Rain = 0
KPG1 141546Z 02008KT 28/19 A3011 RMK A01 T02770192  RH  060%=      5-min Rain = 0
KPG1 141547Z 02007KT 28/19 A3012 RMK A01 T02770193  RH  060%=      5-min Rain = 0
KPG1 141548Z 02008KT 28/19 A3012 RMK A01 T02770194  RH  060%=      5-min Rain = 0
KPG1 141549Z 03008KT 28/19 A3012 RMK A01 T02770194  RH  061%=      5-min Rain = 0
KPG1 141550Z 01007KT 28/19 A3012 RMK A01 T02770194  RH  061%=      5-min Rain = 0
KPG1 141551Z 02006KT 28/19 A3012 RMK A01 T02770194  RH  060%=      5-min Rain = 0
KPG1 141552Z 02007KT 28/19 A3012 RMK A01 T02780194  RH  060%=      5-min Rain = 0
KPG1 141553Z 03006KT 28/19 A3012 RMK A01 T02780194  RH  060%=      5-min Rain = 0
KPG1 141554Z 03006KT 28/19 A3012 RMK A01 T02790194  RH  060%=      5-min Rain = 0
KPG1 141555Z 02006KT 28/20 A3012 RMK A01 T02790195  RH  060%=      5-min Rain = 0
KPG1 141556Z 02009KT 28/20 A3012 RMK A01 T02790195  RH  060%=      5-min Rain = 0
KPG1 141557Z 02008KT 28/20 A3012 RMK A01 T02790196  RH  061%=      5-min Rain = 0
KPG1 141558Z 03007KT 28/20 A3012 RMK A01 T02780196  RH  061%=      5-min Rain = 0
KPG1 141559Z 03007KT 28/20 A3012 RMK A01 T02780196  RH  061%=      5-min Rain = 0
KPG1 141600Z 03008KT 28/20 A3012 RMK A01 T02780196  RH  061%=      5-min Rain = 0
KPG1 141601Z 03008KT 28/20 A3012 RMK A01 T02780196  RH  061%=      5-min Rain = 0
KPG1 141602Z 04006KT 28/20 A3012 RMK A01 T02780195  RH  061%=      5-min Rain = 0
KPG1 141603Z 03005KT 28/20 A3012 RMK A01 T02780195  RH  061%=      5-min Rain = 0
KPG1 141604Z 03005KT 28/20 A3012 RMK A01 T02780196  RH  061%=      5-min Rain = 0
KPG1 141605Z 02007KT 28/20 A3012 RMK A01 T02790196  RH  061%=      5-min Rain = 0
KPG1 141606Z 02007KT 28/20 A3012 RMK A01 T02800195  RH  060%=      5-min Rain = 0
KPG1 141607Z 01009KT 28/20 A3012 RMK A01 T02800195  RH  060%=      5-min Rain = 0
KPG1 141608Z 03007KT 28/20 A3012 RMK A01 T02790195  RH  060%=      5-min Rain = 0
KPG1 141609Z 04008KT 28/20 A3012 RMK A01 T02790196  RH  060%=      5-min Rain = 0
KPG1 141610Z 03007KT 28/20 A3012 RMK A01 T02790196  RH  060%=      5-min Rain = 0
KPG1 141611Z 02006KT 28/20 A3012 RMK A01 T02790195  RH  060%=      5-min Rain = 0
KPG1 141612Z 03007KT 28/20 A3012 RMK A01 T02790196  RH  061%=      5-min Rain = 0
KPG1 141613Z 04006KT 28/20 A3012 RMK A01 T02790195  RH  060%=      5-min Rain = 0
KPG1 141614Z 05006KT 28/20 A3012 RMK A01 T02790196  RH  060%=      5-min Rain = 0
KPG1 141615Z 06006KT 28/20 A3012 RMK A01 T02800196  RH  060%=      5-min Rain = 0
KPG1 141616Z 05006KT 28/20 A3012 RMK A01 T02800195  RH  060%=      5-min Rain = 0
KPG1 141617Z 03006KT 28/20 A3012 RMK A01 T02800197  RH  060%=      5-min Rain = 0
KPG1 141618Z 03007KT 28/20 A3012 RMK A01 T02810196  RH  060%=      5-min Rain = 0
KPG1 141619Z 03007KT 28/20 A3012 RMK A01 T02810196  RH  060%=      5-min Rain = 0
KPG1 141620Z 03007KT 28/20 A3012 RMK A01 T02810196  RH  060%=      5-min Rain = 0
KPG1 141621Z 03006KT 28/20 A3012 RMK A01 T02810196  RH  060%=      5-min Rain = 0
KPG1 141622Z 04007KT 28/20 A3012 RMK A01 T02810197  RH  060%=      5-min Rain = 0
KPG1 141623Z 05007KT 28/20 A3012 RMK A01 T02810197  RH  060%=      5-min Rain = 0
KPG1 141624Z 05006KT 28/20 A3013 RMK A01 T02820196  RH  060%=      5-min Rain = 0
KPG1 141625Z 04006KT 28/20 A3013 RMK A01 T02820197  RH  060%=      5-min Rain = 0
KPG1 141626Z 04006KT 28/20 A3013 RMK A01 T02820198  RH  060%=      5-min Rain = 0
KPG1 141627Z 04006KT 28/20 A3013 RMK A01 T02830198  RH  060%=      5-min Rain = 0
KPG1 141628Z 03007KT 28/20 A3013 RMK A01 T02830198  RH  060%=      5-min Rain = 0
KPG1 141629Z 03007KT 28/20 A3013 RMK A01 T02840197  RH  059%=      5-min Rain = 0
KPG1 141630Z 04006KT 28/20 A3013 RMK A01 T02840197  RH  059%=      5-min Rain = 0
KPG1 141631Z 04008KT 28/20 A3013 RMK A01 T02840197  RH  059%=      5-min Rain = 0
KPG1 141632Z 04008KT 28/20 A3013 RMK A01 T02840197  RH  059%=      5-min Rain = 0
KPG1 141633Z 04008KT 28/20 A3012 RMK A01 T02840197  RH  059%=      5-min Rain = 0
KPG1 141634Z 04007KT 28/20 A3013 RMK A01 T02840197  RH  059%=      5-min Rain = 0
KPG1 141635Z 04006KT 28/20 A3012 RMK A01 T02830197  RH  059%=      5-min Rain = 0
KPG1 141636Z 03006KT 28/20 A3012 RMK A01 T02840198  RH  060%=      5-min Rain = 0
KPG1 141637Z 03008KT 29/20 A3012 RMK A01 T02850197  RH  059%=      5-min Rain = 0
KPG1 141638Z 02007KT 29/20 A3012 RMK A01 T02850196  RH  059%=      5-min Rain = 0
KPG1 141639Z 03006KT 28/20 A3012 RMK A01 T02840197  RH  059%=      5-min Rain = 0
KPG1 141640Z 04007KT 28/20 A3012 RMK A01 T02840197  RH  059%=      5-min Rain = 0
KPG1 141641Z 04007G12KT 29/20 A3012 RMK A01 T02850197  RH  059%=      5-min Rain = 0
KPG1 141642Z 04009KT 29/20 A3012 RMK A01 T02850195  RH  058%=      5-min Rain = 0
KPG1 141643Z 03008KT 29/20 A3012 RMK A01 T02850196  RH  058%=      5-min Rain = 0
KPG1 141644Z 04008KT 28/20 A3013 RMK A01 T02840195  RH  059%=      5-min Rain = 0
KPG1 141645Z 04008KT 28/20 A3013 RMK A01 T02830196  RH  059%=      5-min Rain = 0
KPG1 141646Z 04007KT 28/20 A3013 RMK A01 T02830196  RH  059%=      5-min Rain = 0
KPG1 141647Z 04006KT 28/20 A3013 RMK A01 T02830196  RH  059%=      5-min Rain = 0
KPG1 141648Z 04007KT 28/20 A3013 RMK A01 T02830196  RH  059%=      5-min Rain = 0
KPG1 141649Z 03008KT 28/20 A3013 RMK A01 T02840195  RH  059%=      5-min Rain = 0
KPG1 141650Z 04008KT 28/20 A3013 RMK A01 T02840195  RH  058%=      5-min Rain = 0
KPG1 141651Z 03008KT 28/20 A3013 RMK A01 T02840195  RH  059%=      5-min Rain = 0
KPG1 141652Z 03007KT 28/20 A3013 RMK A01 T02840195  RH  058%=      5-min Rain = 0
KPG1 141653Z 03007KT 28/20 A3013 RMK A01 T02840195  RH  059%=      5-min Rain = 0
KPG1 141654Z 03007KT 28/20 A3013 RMK A01 T02840195  RH  059%=      5-min Rain = 0
KPG1 141655Z 03005KT 28/20 A3012 RMK A01 T02840195  RH  059%=      5-min Rain = 0
KPG1 141656Z 03006KT 28/20 A3012 RMK A01 T02840196  RH  059%=      5-min Rain = 0
KPG1 141657Z 04005KT 28/20 A3012 RMK A01 T02840195  RH  059%=      5-min Rain = 0
KPG1 141658Z 05006KT 28/20 A3012 RMK A01 T02840196  RH  059%=      5-min Rain = 0
KPG1 141659Z 04005KT 28/20 A3013 RMK A01 T02840195  RH  059%=      5-min Rain = 0
KPG1 141700Z 03006KT 28/20 A3013 RMK A01 T02840195  RH  059%=      5-min Rain = 0
KPG1 141701Z 02006KT 28/20 A3013 RMK A01 T02840195  RH  058%=      5-min Rain = 0
KPG1 141702Z 04006KT 28/20 A3013 RMK A01 T02840195  RH  059%=      5-min Rain = 0
KPG1 141703Z 05005KT 29/20 A3013 RMK A01 T02850195  RH  058%=      5-min Rain = 0
KPG1 141704Z 04006KT 29/20 A3013 RMK A01 T02850195  RH  058%=      5-min Rain = 0
KPG1 141705Z 03005KT 29/20 A3013 RMK A01 T02860196  RH  058%=      5-min Rain = 0
KPG1 141706Z 01004KT 29/20 A3013 RMK A01 T02860195  RH  058%=      5-min Rain = 0
KPG1 141707Z 02005KT 29/20 A3013 RMK A01 T02860196  RH  058%=      5-min Rain = 0
KPG1 141708Z 01006KT 29/20 A3013 RMK A01 T02860195  RH  058%=      5-min Rain = 0
KPG1 141709Z 02006KT 29/20 A3013 RMK A01 T02860196  RH  058%=      5-min Rain = 0
KPG1 141710Z 02006KT 29/20 A3013 RMK A01 T02850196  RH  058%=      5-min Rain = 0
KPG1 141711Z 02005KT 29/20 A3013 RMK A01 T02860197  RH  058%=      5-min Rain = 0
KPG1 141712Z 03005KT 29/20 A3013 RMK A01 T02870197  RH  058%=      5-min Rain = 0
KPG1 141713Z 03005KT 29/20 A3013 RMK A01 T02880197  RH  058%=      5-min Rain = 0
KPG1 141714Z 04005KT 29/20 A3012 RMK A01 T02880197  RH  058%=      5-min Rain = 0
KPG1 141715Z 04007KT 29/20 A3012 RMK A01 T02890197  RH  058%=      5-min Rain = 0
KPG1 141716Z 04007KT 29/20 A3012 RMK A01 T02890197  RH  058%=      5-min Rain = 0
KPG1 141717Z 03008KT 29/20 A3012 RMK A01 T02880196  RH  058%=      5-min Rain = 0
KPG1 141718Z 02008KT 29/20 A3012 RMK A01 T02870196  RH  058%=      5-min Rain = 0
KPG1 141719Z 02008KT 29/20 A3012 RMK A01 T02870197  RH  058%=      5-min Rain = 0
KPG1 141720Z 03008KT 29/20 A3012 RMK A01 T02880197  RH  058%=      5-min Rain = 0
KPG1 141721Z 03008KT 29/20 A3012 RMK A01 T02890197  RH  057%=      5-min Rain = 0
KPG1 141722Z 04008KT 29/20 A3012 RMK A01 T02890196  RH  057%=      5-min Rain = 0
KPG1 141723Z 04008KT 29/20 A3012 RMK A01 T02890196  RH  057%=      5-min Rain = 0
KPG1 141724Z 03007KT 29/20 A3012 RMK A01 T02880197  RH  058%=      5-min Rain = 0
KPG1 141725Z 02007KT 29/20 A3012 RMK A01 T02890197  RH  058%=      5-min Rain = 0
KPG1 141726Z 02008KT 29/20 A3012 RMK A01 T02890197  RH  058%=      5-min Rain = 0
KPG1 141727Z 01008KT 29/20 A3012 RMK A01 T02890197  RH  058%=      5-min Rain = 0
KPG1 141728Z 02006KT 29/20 A3012 RMK A01 T02890197  RH  058%=      5-min Rain = 0
KPG1 141729Z 01009KT 29/20 A3012 RMK A01 T02890197  RH  058%=      5-min Rain = 0
KPG1 141730Z 01009KT 29/20 A3012 RMK A01 T02890197  RH  058%=      5-min Rain = 0
KPG1 141731Z 01007KT 29/20 A3012 RMK A01 T02890197  RH  058%=      5-min Rain = 0
KPG1 141732Z 01008KT 29/20 A3012 RMK A01 T02890197  RH  058%=      5-min Rain = 0
KPG1 141733Z 02008KT 29/20 A3012 RMK A01 T02900198  RH  058%=      5-min Rain = 0
KPG1 141734Z 01008KT 29/20 A3012 RMK A01 T02900198  RH  057%=      5-min Rain = 0
KPG1 141735Z 02010KT 29/20 A3012 RMK A01 T02910198  RH  057%=      5-min Rain = 0
KPG1 141736Z 02009KT 29/20 A3012 RMK A01 T02900197  RH  057%=      5-min Rain = 0
KPG1 141737Z 03008KT 29/20 A3012 RMK A01 T02900199  RH  058%=      5-min Rain = 0
KPG1 141738Z 02010KT 29/20 A3012 RMK A01 T02900198  RH  058%=      5-min Rain = 0
KPG1 141739Z 02010KT 29/20 A3012 RMK A01 T02910198  RH  057%=      5-min Rain = 0
KPG1 141740Z 02010KT 29/20 A3012 RMK A01 T02900198  RH  057%=      5-min Rain = 0
KPG1 141741Z 02010KT 29/20 A3012 RMK A01 T02890197  RH  058%=      5-min Rain = 0
KPG1 141742Z 02011KT 29/20 A3012 RMK A01 T02900197  RH  057%=      5-min Rain = 0
KPG1 141743Z 01010KT 29/20 A3012 RMK A01 T02890197  RH  058%=      5-min Rain = 0
KPG1 141744Z 02009KT 29/20 A3012 RMK A01 T02890197  RH  058%=      5-min Rain = 0
KPG1 141745Z 03008KT 29/20 A3012 RMK A01 T02890198  RH  058%=      5-min Rain = 0
KPG1 141746Z 04009KT 29/20 A3012 RMK A01 T02900199  RH  058%=      5-min Rain = 0
KPG1 141747Z 02010KT 29/20 A3012 RMK A01 T02900199  RH  058%=      5-min Rain = 0
KPG1 141748Z 02010KT 29/20 A3012 RMK A01 T02910198  RH  057%=      5-min Rain = 0
KPG1 141749Z 03009KT 29/20 A3012 RMK A01 T02900198  RH  058%=      5-min Rain = 0
KPG1 141750Z 03009KT 29/20 A3012 RMK A01 T02900198  RH  058%=      5-min Rain = 0
KPG1 141751Z 02008KT 29/20 A3012 RMK A01 T02900198  RH  058%=      5-min Rain = 0
KPG1 141752Z 02009KT 29/20 A3012 RMK A01 T02900198  RH  058%=      5-min Rain = 0
KPG1 141753Z 02011KT 29/20 A3012 RMK A01 T02900198  RH  057%=      5-min Rain = 0
KPG1 141754Z 02010KT 29/20 A3012 RMK A01 T02900198  RH  058%=      5-min Rain = 0
KPG1 141755Z 02010KT 29/20 A3012 RMK A01 T02900198  RH  058%=      5-min Rain = 0
KPG1 141756Z 02011KT 29/20 A3012 RMK A01 T02900198  RH  058%=      5-min Rain = 0
KPG1 141757Z 01010KT 29/20 A3012 RMK A01 T02900198  RH  058%=      5-min Rain = 0
KPG1 141758Z 03008KT 29/20 A3012 RMK A01 T02900199  RH  058%=      5-min Rain = 0
KPG1 141759Z 02011KT 29/20 A3012 RMK A01 T02900199  RH  058%=      5-min Rain = 0
KPG1 141800Z 03012KT 29/20 A3012 RMK A01 T02910199  RH  058%=      5-min Rain = 0
KPG1 141801Z 02012KT 29/20 A3012 RMK A01 T02910198  RH  057%=      5-min Rain = 0
KPG1 141802Z 02011KT 29/20 A3012 RMK A01 T02900198  RH  058%=      5-min Rain = 0
KPG1 141803Z 02012KT 29/20 A3012 RMK A01 T02890198  RH  058%=      5-min Rain = 0
KPG1 141804Z 02012KT 29/20 A3012 RMK A01 T02900198  RH  058%=      5-min Rain = 0
KPG1 141805Z 02012KT 29/20 A3012 RMK A01 T02900200  RH  058%=      5-min Rain = 0
KPG1 141806Z 02011KT 29/20 A3012 RMK A01 T02900201  RH  059%=      5-min Rain = 0
KPG1 141807Z 02011KT 29/20 A3012 RMK A01 T02900203  RH  060%=      5-min Rain = 0
KPG1 141808Z 02011KT 29/20 A3012 RMK A01 T02890202  RH  059%=      5-min Rain = 0
KPG1 141809Z 03011KT 29/20 A3012 RMK A01 T02880202  RH  060%=      5-min Rain = 0
KPG1 141810Z 02011KT 29/21 A3012 RMK A01 T02880206  RH  061%=      5-min Rain = 0
KPG1 141811Z 01011KT 29/21 A3012 RMK A01 T02870206  RH  061%=      5-min Rain = 0
KPG1 141812Z 03010KT 29/21 A3012 RMK A01 T02860207  RH  062%=      5-min Rain = 0
KPG1 141813Z 04011KT 29/21 A3012 RMK A01 T02850212  RH  064%=      5-min Rain = 0
KPG1 141814Z 04011KT 28/21 A3012 RMK A01 T02840209  RH  064%=      5-min Rain = 0
KPG1 141815Z 04012KT 28/21 A3012 RMK A01 T02830209  RH  064%=      5-min Rain = 0
KPG1 141816Z 03010KT 28/21 A3012 RMK A01 T02830211  RH  065%=      5-min Rain = 0
KPG1 141817Z 03010KT 28/21 A3012 RMK A01 T02830214  RH  066%=      5-min Rain = 0
KPG1 141818Z 03009KT 28/22 A3012 RMK A01 T02820216  RH  068%=      5-min Rain = 0
KPG1 141819Z 04012KT 28/21 A3012 RMK A01 T02810211  RH  066%=      5-min Rain = 0
KPG1 141820Z 03010KT 28/21 A3012 RMK A01 T02820210  RH  065%=      5-min Rain = 0
KPG1 141821Z 02012KT 28/21 A3012 RMK A01 T02820210  RH  065%=      5-min Rain = 0
KPG1 141822Z 03012KT 28/21 A3012 RMK A01 T02840206  RH  063%=      5-min Rain = 0
KPG1 141823Z 01009KT 29/21 A3012 RMK A01 T02850207  RH  063%=      5-min Rain = 0
KPG1 141824Z 01010KT 29/21 A3012 RMK A01 T02860206  RH  062%=      5-min Rain = 0
KPG1 141825Z 01010KT 29/20 A3012 RMK A01 T02860204  RH  061%=      5-min Rain = 0
KPG1 141826Z 02010KT 29/20 A3012 RMK A01 T02870204  RH  061%=      5-min Rain = 0
KPG1 141827Z 02008KT 29/21 A3012 RMK A01 T02870205  RH  061%=      5-min Rain = 0
KPG1 141828Z 01008KT 29/20 A3012 RMK A01 T02880204  RH  060%=      5-min Rain = 0
KPG1 141829Z 01010KT 29/20 A3012 RMK A01 T02890203  RH  060%=      5-min Rain = 0
KPG1 141830Z 01008KT 29/20 A3011 RMK A01 T02890204  RH  060%=      5-min Rain = 0
KPG1 141831Z 02007KT 29/21 A3011 RMK A01 T02900205  RH  060%=      5-min Rain = 0
KPG1 141832Z 01007KT 29/21 A3011 RMK A01 T02920206  RH  060%=      5-min Rain = 0
KPG1 141833Z 03008KT 29/21 A3011 RMK A01 T02930206  RH  059%=      5-min Rain = 0
KPG1 141834Z 00010KT 29/20 A3011 RMK A01 T02940204  RH  058%=      5-min Rain = 0
KPG1 141835Z 01011KT 30/20 A3011 RMK A01 T02950203  RH  058%=      5-min Rain = 0
KPG1 141836Z 01010KT 29/20 A3011 RMK A01 T02940202  RH  058%=      5-min Rain = 0
KPG1 141837Z 01009KT 29/20 A3011 RMK A01 T02930203  RH  058%=      5-min Rain = 0
KPG1 141838Z 01010KT 29/20 A3011 RMK A01 T02940201  RH  057%=      5-min Rain = 0
KPG1 141839Z 01010KT 29/20 A3011 RMK A01 T02940201  RH  057%=      5-min Rain = 0
KPG1 141840Z 01011KT 29/20 A3011 RMK A01 T02940201  RH  057%=      5-min Rain = 0
KPG1 141841Z 01011KT 29/20 A3011 RMK A01 T02940200  RH  057%=      5-min Rain = 0
KPG1 141842Z 01009KT 29/20 A3011 RMK A01 T02940199  RH  056%=      5-min Rain = 0
KPG1 141843Z 01010KT 29/20 A3011 RMK A01 T02940198  RH  056%=      5-min Rain = 0
KPG1 141844Z 00008KT 30/20 A3011 RMK A01 T02950198  RH  056%=      5-min Rain = 0
KPG1 141845Z 36010KT 30/20 A3011 RMK A01 T02960197  RH  055%=      5-min Rain = 0
KPG1 141846Z 35009KT 30/20 A3011 RMK A01 T02960197  RH  055%=      5-min Rain = 0
KPG1 141847Z 36008KT 30/20 A3011 RMK A01 T02960198  RH  056%=      5-min Rain = 0
KPG1 141848Z 00008KT 30/20 A3011 RMK A01 T02960197  RH  055%=      5-min Rain = 0
KPG1 141849Z 00008KT 30/20 A3011 RMK A01 T02970198  RH  055%=      5-min Rain = 0
KPG1 141850Z 35008KT 30/20 A3011 RMK A01 T02980199  RH  055%=      5-min Rain = 0
KPG1 141851Z 36008KT 30/20 A3011 RMK A01 T02990197  RH  054%=      5-min Rain = 0
KPG1 141852Z 01008KT 30/20 A3011 RMK A01 T02990196  RH  054%=      5-min Rain = 0
KPG1 141853Z 01009KT 30/20 A3011 RMK A01 T02990196  RH  054%=      5-min Rain = 0
KPG1 141854Z 01011KT 30/19 A3011 RMK A01 T02990193  RH  053%=      5-min Rain = 0
KPG1 141855Z 00009KT 30/19 A3011 RMK A01 T03000191  RH  052%=      5-min Rain = 0
KPG1 141856Z 00009KT 30/19 A3011 RMK A01 T03000192  RH  053%=      5-min Rain = 0
KPG1 141857Z 01009KT 30/19 A3011 RMK A01 T03000191  RH  052%=      5-min Rain = 0
KPG1 141858Z 00011KT 30/19 A3011 RMK A01 T03010190  RH  051%=      5-min Rain = 0
KPG1 141859Z 01009KT 30/19 A3011 RMK A01 T03020187  RH  050%=      5-min Rain = 0
KPG1 141900Z 01009KT 30/19 A3011 RMK A01 T03020187  RH  050%=      5-min Rain = 0
KPG1 141901Z 01010KT 30/19 A3011 RMK A01 T03020185  RH  050%=      5-min Rain = 0
KPG1 141902Z 36010KT 30/19 A3011 RMK A01 T03030186  RH  050%=      5-min Rain = 0
KPG1 141903Z 01010KT 30/19 A3011 RMK A01 T03030186  RH  050%=      5-min Rain = 0
KPG1 141904Z 01007KT 30/19 A3011 RMK A01 T03030187  RH  050%=      5-min Rain = 0
KPG1 141905Z 02006KT 30/19 A3011 RMK A01 T03030189  RH  050%=      5-min Rain = 0
KPG1 141906Z 01006KT 31/19 A3011 RMK A01 T03050189  RH  050%=      5-min Rain = 0
KPG1 141907Z 01009KT 31/19 A3011 RMK A01 T03060187  RH  049%=      5-min Rain = 0
KPG1 141908Z 00006KT 31/19 A3011 RMK A01 T03060186  RH  049%=      5-min Rain = 0
KPG1 141909Z 01009KT 31/18 A3011 RMK A01 T03050183  RH  048%=      5-min Rain = 0
KPG1 141910Z 01008KT 30/18 A3011 RMK A01 T03040184  RH  049%=      5-min Rain = 0
KPG1 141911Z 36006KT 30/19 A3011 RMK A01 T03040185  RH  049%=      5-min Rain = 0
KPG1 141912Z 36009KT 31/18 A3011 RMK A01 T03050179  RH  047%=      5-min Rain = 0
KPG1 141913Z 00006KT 31/18 A301 RMK A01 T03060178  RH  047%=      5-min Rain = 0
KPG1 141914Z 35007KT 31/18 A301 RMK A01 T03060180  RH  047%=      5-min Rain = 0
KPG1 141915Z 35009KT 31/18 A301 RMK A01 T03070181  RH  047%=      5-min Rain = 0
KPG1 141916Z 35010KT 31/18 A301 RMK A01 T03070182  RH  047%=      5-min Rain = 0
KPG1 141917Z 34011KT 31/18 A301 RMK A01 T03070182  RH  047%=      5-min Rain = 0
KPG1 141918Z 34010KT 31/18 A301 RMK A01 T03070183  RH  048%=      5-min Rain = 0
KPG1 141919Z 36009KT 31/18 A301 RMK A01 T03070183  RH  048%=      5-min Rain = 0
KPG1 141920Z 00009KT 31/18 A301 RMK A01 T03070183  RH  047%=      5-min Rain = 0
KPG1 141921Z 00010KT 31/18 A301 RMK A01 T03070183  RH  047%=      5-min Rain = 0
KPG1 141922Z 01008KT 31/19 A301 RMK A01 T03080185  RH  048%=      5-min Rain = 0
KPG1 141923Z 36009KT 31/18 A301 RMK A01 T03080184  RH  047%=      5-min Rain = 0
KPG1 141924Z 00010KT 31/18 A3009 RMK A01 T03090184  RH  047%=      5-min Rain = 0
KPG1 141925Z 01009KT 31/19 A3009 RMK A01 T03090186  RH  048%=      5-min Rain = 0
KPG1 141926Z 02011KT 31/19 A3009 RMK A01 T03100186  RH  048%=      5-min Rain = 0
KPG1 141927Z 02010KT 31/19 A3009 RMK A01 T03110188  RH  048%=      5-min Rain = 0
KPG1 141928Z 01008KT 31/19 A3009 RMK A01 T03130189  RH  048%=      5-min Rain = 0
KPG1 141929Z 02009KT 31/19 A3009 RMK A01 T03140188  RH  047%=      5-min Rain = 0
KPG1 141930Z 03009KT 31/19 A3009 RMK A01 T03130187  RH  047%=      5-min Rain = 0
KPG1 141931Z 03008KT 31/19 A3009 RMK A01 T03130187  RH  047%=      5-min Rain = 0
KPG1 141932Z 03011KT 31/18 A3009 RMK A01 T03140183  RH  046%=      5-min Rain = 0
KPG1 141933Z 03012KT 32/17 A3009 RMK A01 T03150170  RH  042%=      5-min Rain = 0
KPG1 141934Z 04010KT 32/17 A3009 RMK A01 T03160168  RH  041%=      5-min Rain = 0
KPG1 141935Z 04012KT 32/17 A3009 RMK A01 T03180168  RH  041%=      5-min Rain = 0
KPG1 141936Z 05011KT 32/17 A3009 RMK A01 T03180168  RH  041%=      5-min Rain = 0
KPG1 141937Z 05010KT 32/16 A3009 RMK A01 T03170164  RH  040%=      5-min Rain = 0
KPG1 141938Z 05010KT 32/17 A3009 RMK A01 T03180165  RH  040%=      5-min Rain = 0
KPG1 141939Z 06010KT 32/16 A3009 RMK A01 T03180162  RH  039%=      5-min Rain = 0
KPG1 141940Z 04010KT 32/16 A3008 RMK A01 T03180163  RH  039%=      5-min Rain = 0
KPG1 141941Z 05010KT 32/16 A3008 RMK A01 T03200162  RH  039%=      5-min Rain = 0
KPG1 141942Z 06011KT 32/16 A3008 RMK A01 T03190158  RH  038%=      5-min Rain = 0
KPG1 141943Z 07011KT 32/16 A3008 RMK A01 T03190155  RH  037%=      5-min Rain = 0
KPG1 141944Z 04010KT 32/16 A3008 RMK A01 T03190157  RH  038%=      5-min Rain = 0
KPG1 141945Z 04011KT 32/16 A3008 RMK A01 T03190158  RH  038%=      5-min Rain = 0
KPG1 141946Z 04013KT 32/16 A3008 RMK A01 T03190158  RH  038%=      5-min Rain = 0
KPG1 141947Z 05010KT 32/16 A3008 RMK A01 T03170158  RH  038%=      5-min Rain = 0
KPG1 141948Z 07010KT 32/15 A3008 RMK A01 T03170153  RH  037%=      5-min Rain = 0
KPG1 141949Z 08012KT 32/16 A3008 RMK A01 T03170155  RH  038%=      5-min Rain = 0
KPG1 141950Z 06010KT 32/16 A3008 RMK A01 T03180156  RH  038%=      5-min Rain = 0
KPG1 141951Z 03012KT 32/17 A3008 RMK A01 T03200168  RH  040%=      5-min Rain = 0
KPG1 141952Z 03012KT 32/18 A3008 RMK A01 T03200175  RH  042%=      5-min Rain = 0
KPG1 141953Z 03012KT 32/17 A3008 RMK A01 T03200170  RH  041%=      5-min Rain = 0
KPG1 141954Z 03010KT 32/16 A3008 RMK A01 T03190162  RH  039%=      5-min Rain = 0
KPG1 141955Z 04010KT 32/16 A3008 RMK A01 T03190161  RH  038%=      5-min Rain = 0
KPG1 141956Z 04010KT 32/16 A3008 RMK A01 T03210161  RH  038%=      5-min Rain = 0
KPG1 141957Z 04012KT 32/16 A3008 RMK A01 T03210163  RH  039%=      5-min Rain = 0
KPG1 141958Z 04010KT 32/16 A3008 RMK A01 T03220162  RH  038%=      5-min Rain = 0
KPG1 141959Z 05009KT 32/16 A3008 RMK A01 T03200160  RH  038%=      5-min Rain = 0
KPG1 142000Z 03009KT 32/16 A3008 RMK A01 T03200157  RH  037%=      5-min Rain = 0
KPG1 142001Z 05008KT 32/16 A3008 RMK A01 T03190157  RH  038%=      5-min Rain = 0
KPG1 142002Z 05009KT 32/16 A3008 RMK A01 T03200157  RH  037%=      5-min Rain = 0
KPG1 142003Z 03009KT 32/15 A3008 RMK A01 T03210154  RH  037%=      5-min Rain = 0
KPG1 142004Z 04009KT 32/16 A3008 RMK A01 T03210156  RH  037%=      5-min Rain = 0
KPG1 142005Z 03009G14KT 32/16 A3008 RMK A01 T03230157  RH  037%=      5-min Rain = 0
KPG1 142006Z 02013KT 33/16 A3008 RMK A01 T03250161  RH  037%=      5-min Rain = 0
KPG1 142007Z 02013KT 32/16 A3007 RMK A01 T03240162  RH  038%=      5-min Rain = 0
KPG1 142008Z 02010KT 32/16 A3007 RMK A01 T03220163  RH  038%=      5-min Rain = 0
KPG1 142009Z 03013KT 32/17 A3007 RMK A01 T03240167  RH  039%=      5-min Rain = 0
KPG1 142010Z 02011KT 32/17 A3007 RMK A01 T03230167  RH  039%=      5-min Rain = 0
KPG1 142011Z 02013KT 32/17 A3007 RMK A01 T03230167  RH  039%=      5-min Rain = 0
KPG1 142012Z 02012KT 32/17 A3007 RMK A01 T03240166  RH  039%=      5-min Rain = 0
KPG1 142013Z 03011KT 32/17 A3007 RMK A01 T03240168  RH  039%=      5-min Rain = 0
KPG1 142014Z 02010KT 32/17 A3007 RMK A01 T03240172  RH  040%=      5-min Rain = 0
KPG1 142015Z 04009KT 32/17 A3007 RMK A01 T03230173  RH  041%=      5-min Rain = 0
KPG1 142016Z 02011KT 32/17 A3007 RMK A01 T03240174  RH  041%=      5-min Rain = 0
KPG1 142017Z 02011KT 33/18 A3007 RMK A01 T03260178  RH  041%=      5-min Rain = 0
KPG1 142018Z 02010KT 33/18 A3007 RMK A01 T03270179  RH  042%=      5-min Rain = 0
KPG1 142019Z 01007KT 33/18 A3007 RMK A01 T03250179  RH  042%=      5-min Rain = 0
KPG1 142020Z 01011KT 33/18 A3007 RMK A01 T03250181  RH  042%=      5-min Rain = 0
KPG1 142021Z 03012KT 32/18 A3007 RMK A01 T03240181  RH  043%=      5-min Rain = 0
KPG1 142022Z 02009KT 32/18 A3007 RMK A01 T03220182  RH  043%=      5-min Rain = 0
KPG1 142023Z 02008KT 32/19 A3007 RMK A01 T03230185  RH  044%=      5-min Rain = 0
KPG1 142024Z 02008KT 33/19 A3007 RMK A01 T03270185  RH  043%=      5-min Rain = 0
KPG1 142025Z 01013KT 33/18 A3007 RMK A01 T03260184  RH  043%=      5-min Rain = 0
KPG1 142026Z 01013KT 33/18 A3007 RMK A01 T03250182  RH  043%=      5-min Rain = 0
KPG1 142027Z 01012KT 32/18 A3007 RMK A01 T03240183  RH  043%=      5-min Rain = 0
KPG1 142028Z 02012KT 32/18 A3007 RMK A01 T03230182  RH  043%=      5-min Rain = 0
KPG1 142029Z 02011G16KT 32/18 A3007 RMK A01 T03230183  RH  043%=      5-min Rain = 0
KPG1 142030Z 01013KT 32/18 A3007 RMK A01 T03240181  RH  043%=      5-min Rain = 0
KPG1 142031Z 03010KT 32/18 A3007 RMK A01 T03240180  RH  042%=      5-min Rain = 0
KPG1 142032Z 02011KT 33/18 A3006 RMK A01 T03250180  RH  042%=      5-min Rain = 0
KPG1 142033Z 02012KT 33/18 A3006 RMK A01 T03260180  RH  042%=      5-min Rain = 0
KPG1 142034Z 02013KT 33/18 A3006 RMK A01 T03250179  RH  042%=      5-min Rain = 0
KPG1 142035Z 03014KT 33/17 A3006 RMK A01 T03260174  RH  040%=      5-min Rain = 0
KPG1 142036Z 00011G16KT 33/18 A3006 RMK A01 T03270175  RH  040%=      5-min Rain = 0
KPG1 142037Z 01014KT 33/18 A3006 RMK A01 T03280175  RH  040%=      5-min Rain = 0
KPG1 142038Z 03014G19KT 33/17 A3006 RMK A01 T03280174  RH  040%=      5-min Rain = 0
KPG1 142039Z 02015KT 33/17 A3006 RMK A01 T03280170  RH  039%=      5-min Rain = 0
KPG1 142040Z 02012KT 33/17 A3006 RMK A01 T03280171  RH  039%=      5-min Rain = 0
KPG1 142041Z 02012KT 33/17 A3006 RMK A01 T03280171  RH  039%=      5-min Rain = 0
KPG1 142042Z 02013KT 33/17 A3006 RMK A01 T03290170  RH  039%=      5-min Rain = 0
KPG1 142043Z 02012KT 33/17 A3006 RMK A01 T03290170  RH  039%=      5-min Rain = 0
KPG1 142044Z 01013KT 33/17 A3006 RMK A01 T03290168  RH  038%=      5-min Rain = 0
KPG1 142045Z 02014KT 33/17 A3006 RMK A01 T03300167  RH  038%=      5-min Rain = 0
KPG1 142046Z 02012KT 33/17 A3006 RMK A01 T03310168  RH  038%=      5-min Rain = 0
KPG1 142047Z 02015KT 33/17 A3006 RMK A01 T03330168  RH  037%=      5-min Rain = 0
KPG1 142048Z 03011KT 33/17 A3006 RMK A01 T03340169  RH  037%=      5-min Rain = 0
KPG1 142049Z 03012KT 33/17 A3006 RMK A01 T03340168  RH  037%=      5-min Rain = 0
KPG1 142050Z 03012KT 33/17 A3006 RMK A01 T03340168  RH  037%=      5-min Rain = 0
KPG1 142051Z 04015KT 34/17 A3006 RMK A01 T03350167  RH  037%=      5-min Rain = 0
KPG1 142052Z 04013KT 34/17 A3006 RMK A01 T03350165  RH  036%=      5-min Rain = 0
KPG1 142053Z 03009KT 33/17 A3006 RMK A01 T03340165  RH  036%=      5-min Rain = 0
KPG1 142054Z 03014G19KT 34/17 A3006 RMK A01 T03370166  RH  036%=      5-min Rain = 0
KPG1 142055Z 04016G21KT 34/17 A3006 RMK A01 T03380166  RH  036%=      5-min Rain = 0
KPG1 142056Z 05015KT 34/16 A3006 RMK A01 T03360163  RH  036%=      5-min Rain = 0
KPG1 142057Z 04017KT 33/16 A3005 RMK A01 T03340162  RH  036%=      5-min Rain = 0
KPG1 142058Z 03021KT 33/16 A3005 RMK A01 T03340160  RH  035%=      5-min Rain = 0
KPG1 142059Z 02015KT 33/16 A3005 RMK A01 T03340160  RH  035%=      5-min Rain = 0
KPG1 142100Z 02013KT 34/16 A3005 RMK A01 T03350160  RH  035%=      5-min Rain = 0
KPG1 142101Z 02015KT 34/16 A3005 RMK A01 T03380159  RH  034%=      5-min Rain = 0
KPG1 142102Z 04016KT 34/16 A3005 RMK A01 T03390158  RH  034%=      5-min Rain = 0
KPG1 142103Z 04017KT 34/16 A3005 RMK A01 T03390157  RH  034%=      5-min Rain = 0
KPG1 142104Z 04016KT 34/16 A3005 RMK A01 T03390157  RH  034%=      5-min Rain = 0
KPG1 142105Z 04018KT 34/16 A3005 RMK A01 T03380157  RH  034%=      5-min Rain = 0
KPG1 142106Z 04016KT 34/16 A3006 RMK A01 T03380157  RH  034%=      5-min Rain = 0
KPG1 142107Z 03017KT 34/16 A3005 RMK A01 T03390158  RH  034%=      5-min Rain = 0
KPG1 142108Z 02016G22KT 34/16 A3005 RMK A01 T03380158  RH  034%=      5-min Rain = 0
KPG1 142109Z 04016G21KT 34/16 A3005 RMK A01 T03370158  RH  034%=      5-min Rain = 0
KPG1 142110Z 03017KT 34/16 A3005 RMK A01 T03370159  RH  035%=      5-min Rain = 0
KPG1 142111Z 03019KT 34/16 A3005 RMK A01 T03360161  RH  035%=      5-min Rain = 0
KPG1 142112Z 03017KT 33/16 A3005 RMK A01 T03340161  RH  036%=      5-min Rain = 0
KPG1 142113Z 03021KT 33/16 A3005 RMK A01 T03320161  RH  036%=      5-min Rain = 0
KPG1 142114Z 04021KT 33/16 A3005 RMK A01 T03320162  RH  036%=      5-min Rain = 0
KPG1 142115Z 03027G35KT 33/17 A3005 RMK A01 T03300168  RH  038%=      5-min Rain = 0
KPG1 142116Z 04027G32KT 32/17 A3005 RMK A01 T03240169  RH  040%=      5-min Rain = 0
KPG1 142117Z 04025G30KT 32/17 A3005 RMK A01 T03200170  RH  041%=      5-min Rain = 0
KPG1 142118Z 04027G35KT 32/17 A3006 RMK A01 T03190171  RH  041%=      5-min Rain = 0
KPG1 142119Z 04024KT 32/17 A3006 RMK A01 T03180170  RH  041%=      5-min Rain = 0
KPG1 142120Z 04023KT 32/17 A3006 RMK A01 T03180171  RH  042%=      5-min Rain = 0
KPG1 142121Z 03023KT 32/17 A3006 RMK A01 T03180171  RH  041%=      5-min Rain = 0
KPG1 142122Z 03022G27KT 32/17 A3006 RMK A01 T03200171  RH  041%=      5-min Rain = 0
KPG1 142123Z 04016G25KT 32/17 A3006 RMK A01 T03230171  RH  040%=      5-min Rain = 0
KPG1 142124Z 04016G21KT 32/17 A3006 RMK A01 T03240173  RH  040%=      5-min Rain = 0
KPG1 142125Z 04024G30KT 33/17 A3006 RMK A01 T03280173  RH  040%=      5-min Rain = 0
KPG1 142126Z 03025G31KT 33/17 A3006 RMK A01 T03250171  RH  040%=      5-min Rain = 0
KPG1 142127Z 03025G33KT 32/17 A3006 RMK A01 T03190171  RH  041%=      5-min Rain = 0
KPG1 142128Z 03024G29KT 32/17 A3007 RMK A01 T03170171  RH  042%=      5-min Rain = 0
KPG1 142129Z 04023G28KT 32/17 A3007 RMK A01 T03150170  RH  042%=      5-min Rain = 0
KPG1 142130Z 03019KT 31/17 A3007 RMK A01 T03130170  RH  042%=      5-min Rain = 0
KPG1 142131Z 03017G22KT 31/17 A3006 RMK A01 T03130171  RH  043%=      5-min Rain = 0
KPG1 142132Z 03018KT 32/17 A3007 RMK A01 T03150172  RH  042%=      5-min Rain = 0
KPG1 142133Z 04017KT 32/17 A3007 RMK A01 T03160171  RH  042%=      5-min Rain = 0
KPG1 142134Z 03024KT 32/17 A3007 RMK A01 T03160172  RH  042%=      5-min Rain = 0
KPG1 142135Z 04023G29KT 32/17 A3007 RMK A01 T03160170  RH  042%=      5-min Rain = 0
KPG1 142136Z 04019G24KT 32/17 A3007 RMK A01 T03150170  RH  042%=      5-min Rain = 0
KPG1 142137Z 03022G29KT 31/17 A3007 RMK A01 T03140169  RH  042%=      5-min Rain = 0
KPG1 142138Z 03019G25KT 31/17 A3007 RMK A01 T03140168  RH  042%=      5-min Rain = 0
KPG1 142139Z 04019G24KT 31/17 A3007 RMK A01 T03140168  RH  042%=      5-min Rain = 0
KPG1 142140Z 04019G25KT 31/17 A3007 RMK A01 T03140168  RH  042%=      5-min Rain = 0
KPG1 142141Z 04018KT 32/17 A3007 RMK A01 T03170169  RH  041%=      5-min Rain = 0
KPG1 142142Z 04018G23KT 32/17 A3007 RMK A01 T03190168  RH  040%=      5-min Rain = 0
KPG1 142143Z 04018G26KT 32/17 A3008 RMK A01 T03180167  RH  040%=      5-min Rain = 0
KPG1 142144Z 03016G22KT 32/17 A3008 RMK A01 T03170166  RH  040%=      5-min Rain = 0
KPG1 142145Z 03017G22KT 32/17 A3008 RMK A01 T03160165  RH  040%=      5-min Rain = 0
KPG1 142146Z 03015KT 32/16 A3008 RMK A01 T03150164  RH  040%=      5-min Rain = 0
KPG1 142147Z 04013KT 32/16 A3008 RMK A01 T03150164  RH  040%=      5-min Rain = 0
KPG1 142148Z 05017G22KT 32/17 A3008 RMK A01 T03160165  RH  040%=      5-min Rain = 0
KPG1 142149Z 04014KT 32/16 A3008 RMK A01 T03160164  RH  040%=      5-min Rain = 0
KPG1 142150Z 04016KT 32/16 A3008 RMK A01 T03160164  RH  040%=      5-min Rain = 0
KPG1 142151Z 04015KT 32/17 A3008 RMK A01 T03160165  RH  040%=      5-min Rain = 0
KPG1 142152Z 04015KT 32/16 A3008 RMK A01 T03170164  RH  040%=      5-min Rain = 0
KPG1 142153Z 05011KT 32/16 A3008 RMK A01 T03170164  RH  040%=      5-min Rain = 0
KPG1 142154Z 04014KT 32/16 A3008 RMK A01 T03190164  RH  039%=      5-min Rain = 0
KPG1 142155Z 04014G21KT 32/17 A3008 RMK A01 T03190165  RH  040%=      5-min Rain = 0
KPG1 142156Z 03014KT 32/17 A3007 RMK A01 T03190166  RH  040%=      5-min Rain = 0
KPG1 142157Z 05016G21KT 32/17 A3007 RMK A01 T03210167  RH  040%=      5-min Rain = 0
KPG1 142158Z 06014KT 32/17 A3008 RMK A01 T03210167  RH  040%=      5-min Rain = 0
KPG1 142159Z 05013KT 32/17 A3007 RMK A01 T03210167  RH  040%=      5-min Rain = 0
KPG1 142200Z 06015G21KT 32/17 A3007 RMK A01 T03220168  RH  040%=      5-min Rain = 0
KPG1 142201Z 07020KT 32/17 A3008 RMK A01 T03240167  RH  039%=      5-min Rain = 0
KPG1 142202Z 07015KT 32/17 A3008 RMK A01 T03220166  RH  039%=      5-min Rain = 0
KPG1 142203Z 06018KT 32/17 A3007 RMK A01 T03210169  RH  040%=      5-min Rain = 0
KPG1 142204Z 05019KT 32/17 A3007 RMK A01 T03180172  RH  042%=      5-min Rain = 0
KPG1 142205Z 05018KT 31/17 A3007 RMK A01 T03140174  RH  043%=      5-min Rain = 0
KPG1 142206Z 06019G25KT 31/17 A3008 RMK A01 T03130174  RH  044%=      5-min Rain = 0
KPG1 142207Z 08017G23KT 31/17 A3008 RMK A01 T03120174  RH  044%=      5-min Rain = 0
KPG1 142208Z 09013KT 31/17 A3008 RMK A01 T03110174  RH  044%=      5-min Rain = 0
KPG1 142209Z 10009KT 31/17 A3008 RMK A01 T03100174  RH  044%=      5-min Rain = 0
KPG1 142210Z 11007KT 31/18 A3008 RMK A01 T03110175  RH  044%=      5-min Rain = 0
KPG1 142211Z 09011G16KT 31/18 A3008 RMK A01 T03130175  RH  044%=      5-min Rain = 0
KPG1 142212Z 07012KT 31/18 A3008 RMK A01 T03140175  RH  043%=      5-min Rain = 0
KPG1 142213Z 10010KT 31/17 A3008 RMK A01 T03130174  RH  043%=      5-min Rain = 0
KPG1 142214Z 08012KT 31/18 A3008 RMK A01 T03130175  RH  044%=      5-min Rain = 0
KPG1 142215Z 08012G18KT 31/18 A3008 RMK A01 T03110175  RH  044%=      5-min Rain = 0
KPG1 142216Z 08011KT 31/18 A3008 RMK A01 T03110175  RH  044%=      5-min Rain = 0
KPG1 142217Z 08009G20KT 31/17 A3008 RMK A01 T03100174  RH  044%=      5-min Rain = 0
KPG1 142218Z 07014G20KT 31/18 A3008 RMK A01 T03090175  RH  045%=      5-min Rain = 0
KPG1 142219Z 10009KT 31/17 A3009 RMK A01 T03090174  RH  044%=      5-min Rain = 0
KPG1 142220Z 08011G18KT 31/18 A3009 RMK A01 T03090175  RH  045%=      5-min Rain = 0
KPG1 142221Z 11010KT 31/18 A3009 RMK A01 T03090175  RH  045%=      5-min Rain = 0
KPG1 142222Z 12014KT 31/17 A3009 RMK A01 T03090173  RH  044%=      5-min Rain = 0
KPG1 142223Z 12013KT 31/17 A3009 RMK A01 T03090172  RH  044%=      5-min Rain = 0
KPG1 142224Z 13015KT 31/17 A3009 RMK A01 T03080172  RH  044%=      5-min Rain = 0
KPG1 142225Z 12014KT 31/17 A3009 RMK A01 T03070172  RH  045%=      5-min Rain = 0
KPG1 142226Z 10014KT 31/17 A3009 RMK A01 T03050172  RH  045%=      5-min Rain = 0
KPG1 142227Z 13010KT 30/17 A3009 RMK A01 T03030172  RH  046%=      5-min Rain = 0
KPG1 142228Z 12012G17KT 30/17 A3009 RMK A01 T03030173  RH  046%=      5-min Rain = 0
KPG1 142229Z 12012KT 30/17 A3009 RMK A01 T03030173  RH  046%=      5-min Rain = 0
KPG1 142230Z 11012KT 30/17 A3009 RMK A01 T03030173  RH  046%=      5-min Rain = 0
KPG1 142231Z 12014G20KT 30/17 A3009 RMK A01 T03020174  RH  046%=      5-min Rain = 0
KPG1 142232Z 11012G17KT 30/17 A3009 RMK A01 T03010174  RH  046%=      5-min Rain = 0
KPG1 142233Z 12010KT 30/17 A3009 RMK A01 T03000174  RH  047%=      5-min Rain = 0
KPG1 142234Z 13012KT 30/17 A301 RMK A01 T03010174  RH  046%=      5-min Rain = 0
KPG1 142235Z 12014G21KT 30/17 A3009 RMK A01 T03010173  RH  046%=      5-min Rain = 0
KPG1 142236Z 10012KT 30/17 A3009 RMK A01 T03010173  RH  046%=      5-min Rain = 0
KPG1 142237Z 11010KT 30/17 A301 RMK A01 T03000173  RH  046%=      5-min Rain = 0
KPG1 142238Z 09005G11KT 30/17 A301 RMK A01 T03010173  RH  046%=      5-min Rain = 0
KPG1 142239Z 12011KT 30/17 A301 RMK A01 T03010173  RH  046%=      5-min Rain = 0
KPG1 142240Z 11012G17KT 30/17 A301 RMK A01 T03010172  RH  046%=      5-min Rain = 0
KPG1 142241Z 12013G18KT 30/17 A301 RMK A01 T03010172  RH  046%=      5-min Rain = 0
KPG1 142242Z 13012G17KT 30/17 A301 RMK A01 T03000172  RH  046%=      5-min Rain = 0
KPG1 142243Z 11011KT 30/17 A301 RMK A01 T03000172  RH  046%=      5-min Rain = 0
KPG1 142244Z 12010G15KT 30/17 A301 RMK A01 T02990172  RH  046%=      5-min Rain = 0
KPG1 142245Z 12016KT 30/17 A301 RMK A01 T03000172  RH  046%=      5-min Rain = 0
KPG1 142246Z 12012KT 30/17 A301 RMK A01 T02980171  RH  046%=      5-min Rain = 0
KPG1 142247Z 13013G18KT 30/17 A301 RMK A01 T02970171  RH  047%=      5-min Rain = 0
KPG1 142248Z 13014KT 30/17 A301 RMK A01 T02980171  RH  047%=      5-min Rain = 0
KPG1 142249Z 12012KT 30/17 A301 RMK A01 T02970171  RH  047%=      5-min Rain = 0
KPG1 142250Z 12011KT 30/17 A301 RMK A01 T02970171  RH  047%=      5-min Rain = 0
KPG1 142251Z 11009KT 30/17 A301 RMK A01 T02970172  RH  047%=      5-min Rain = 0
KPG1 142252Z 12008KT 30/17 A301 RMK A01 T02980171  RH  047%=      5-min Rain = 0
KPG1 142253Z 10009KT 30/17 A3009 RMK A01 T02980171  RH  046%=      5-min Rain = 0
KPG1 142254Z 13011KT 30/17 A3009 RMK A01 T02990171  RH  046%=      5-min Rain = 0
KPG1 142255Z 10006KT 30/17 A3009 RMK A01 T03000172  RH  046%=      5-min Rain = 0
KPG1 142256Z 11006KT 30/17 A3009 RMK A01 T03020172  RH  046%=      5-min Rain = 0
KPG1 142257Z 11008KT 30/17 A3009 RMK A01 T03030170  RH  045%=      5-min Rain = 0
KPG1 142258Z 11010KT 30/17 A3009 RMK A01 T03020170  RH  045%=      5-min Rain = 0
KPG1 142259Z 11010KT 30/17 A3009 RMK A01 T03020170  RH  045%=      5-min Rain = 0
KPG1 142300Z 11009KT 30/17 A3009 RMK A01 T03020169  RH  045%=      5-min Rain = 0
KPG1 142301Z 13018G24KT 30/17 A3009 RMK A01 T03020170  RH  045%=      5-min Rain = 0
KPG1 142302Z 12011KT 30/17 A3009 RMK A01 T03010169  RH  045%=      5-min Rain = 0
KPG1 142303Z 09010KT 30/17 A3009 RMK A01 T03010170  RH  045%=      5-min Rain = 0
KPG1 142304Z 09009KT 30/17 A3009 RMK A01 T03010169  RH  045%=      5-min Rain = 0
KPG1 142305Z 12010KT 30/17 A3009 RMK A01 T03010169  RH  045%=      5-min Rain = 0
KPG1 142306Z 11013KT 30/17 A3009 RMK A01 T03010169  RH  045%=      5-min Rain = 0
KPG1 142307Z 11011KT 30/17 A3009 RMK A01 T03020169  RH  045%=      5-min Rain = 0
KPG1 142308Z 11012G17KT 30/17 A3009 RMK A01 T03010168  RH  045%=      5-min Rain = 0
KPG1 142309Z 12010G15KT 30/17 A3009 RMK A01 T02990167  RH  045%=      5-min Rain = 0
KPG1 142310Z 11011KT 30/17 A3009 RMK A01 T02980168  RH  045%=      5-min Rain = 0
KPG1 142311Z 11014G20KT 30/17 A3009 RMK A01 T02980167  RH  045%=      5-min Rain = 0
KPG1 142312Z 11013G19KT 30/17 A3009 RMK A01 T02950165  RH  045%=      5-min Rain = 0
KPG1 142313Z 11011KT 29/17 A3009 RMK A01 T02940166  RH  046%=      5-min Rain = 0
KPG1 142314Z 12011KT 29/17 A3009 RMK A01 T02930165  RH  046%=      5-min Rain = 0
KPG1 142315Z 11011G19KT 29/16 A3009 RMK A01 T02930164  RH  046%=      5-min Rain = 0
KPG1 142316Z 12011KT 29/16 A3009 RMK A01 T02930164  RH  046%=      5-min Rain = 0
KPG1 142317Z 12008KT 29/16 A3009 RMK A01 T02920164  RH  046%=      5-min Rain = 0
KPG1 142318Z 12010KT 29/16 A3009 RMK A01 T02920164  RH  046%=      5-min Rain = 0
KPG1 142319Z 12011KT 29/16 A3009 RMK A01 T02920162  RH  045%=      5-min Rain = 0
KPG1 142320Z 12012KT 29/16 A3009 RMK A01 T02920158  RH  044%=      5-min Rain = 0
KPG1 142321Z 12012KT 29/16 A3009 RMK A01 T02920157  RH  044%=      5-min Rain = 0
KPG1 142322Z 11012KT 29/16 A3009 RMK A01 T02910158  RH  044%=      5-min Rain = 0
KPG1 142323Z 12011KT 29/16 A3009 RMK A01 T02910157  RH  044%=      5-min Rain = 0
KPG1 142324Z 11010KT 29/16 A3009 RMK A01 T02920158  RH  044%=      5-min Rain = 0
KPG1 142325Z 11012KT 29/16 A3009 RMK A01 T02920157  RH  044%=      5-min Rain = 0
KPG1 142326Z 10009KT 29/16 A3009 RMK A01 T02900157  RH  044%=      5-min Rain = 0
KPG1 142327Z 13010KT 29/16 A3009 RMK A01 T02900159  RH  045%=      5-min Rain = 0
KPG1 142328Z 11009KT 29/16 A3009 RMK A01 T02900158  RH  045%=      5-min Rain = 0
KPG1 142329Z 11010KT 29/16 A3009 RMK A01 T02880159  RH  045%=      5-min Rain = 0
KPG1 142330Z 09011G16KT 29/16 A3009 RMK A01 T02870158  RH  045%=      5-min Rain = 0
KPG1 142331Z 13011KT 29/16 A3009 RMK A01 T02870159  RH  046%=      5-min Rain = 0
KPG1 142332Z 13014G20KT 29/16 A3009 RMK A01 T02870159  RH  046%=      5-min Rain = 0
KPG1 142333Z 13012KT 29/16 A3009 RMK A01 T02870161  RH  046%=      5-min Rain = 0
KPG1 142334Z 11010KT 29/16 A3009 RMK A01 T02860160  RH  046%=      5-min Rain = 0
KPG1 142335Z 11011KT 29/16 A3009 RMK A01 T02860160  RH  046%=      5-min Rain = 0
KPG1 142336Z 11009KT 29/16 A3009 RMK A01 T02860160  RH  046%=      5-min Rain = 0
KPG1 142337Z 13011KT 29/16 A3009 RMK A01 T02850160  RH  046%=      5-min Rain = 0
KPG1 142338Z 11012KT 29/16 A3009 RMK A01 T02860159  RH  046%=      5-min Rain = 0
KPG1 142339Z 11008KT 29/16 A3009 RMK A01 T02870159  RH  046%=      5-min Rain = 0
KPG1 142340Z 10008KT 29/16 A3009 RMK A01 T02870159  RH  046%=      5-min Rain = 0
KPG1 142341Z 12007KT 29/16 A3009 RMK A01 T02870159  RH  046%=      5-min Rain = 0
KPG1 142342Z 12008KT 29/16 A3009 RMK A01 T02870159  RH  046%=      5-min Rain = 0
KPG1 142343Z 10010KT 29/16 A3009 RMK A01 T02880159  RH  046%=      5-min Rain = 0
KPG1 142344Z 10011G16KT 29/16 A3009 RMK A01 T02880159  RH  046%=      5-min Rain = 0
KPG1 142345Z 10008KT 29/16 A3009 RMK A01 T02870159  RH  046%=      5-min Rain = 0
KPG1 142346Z 11008KT 29/16 A3009 RMK A01 T02860160  RH  046%=      5-min Rain = 0
KPG1 142347Z 11008KT 29/16 A3009 RMK A01 T02870161  RH  047%=      5-min Rain = 0
KPG1 142348Z 11010KT 29/16 A3009 RMK A01 T02870161  RH  046%=      5-min Rain = 0
KPG1 142349Z 12009KT 29/16 A3009 RMK A01 T02870161  RH  046%=      5-min Rain = 0
KPG1 142350Z 12013KT 29/16 A3009 RMK A01 T02850161  RH  047%=      5-min Rain = 0
KPG1 142351Z 11008KT 28/16 A3009 RMK A01 T02840161  RH  047%=      5-min Rain = 0
KPG1 142352Z 11008G13KT 28/16 A3009 RMK A01 T02840161  RH  047%=      5-min Rain = 0
KPG1 142353Z 10009KT 28/16 A3009 RMK A01 T02840161  RH  047%=      5-min Rain = 0
KPG1 142354Z 10006KT 28/16 A3009 RMK A01 T02840161  RH  047%=      5-min Rain = 0
KPG1 142355Z 10009KT 28/16 A3009 RMK A01 T02840161  RH  047%=      5-min Rain = 0
KPG1 142356Z 09009KT 28/16 A3009 RMK A01 T02840160  RH  047%=      5-min Rain = 0
KPG1 142357Z 08007KT 28/16 A3009 RMK A01 T02820159  RH  047%=      5-min Rain = 0
KPG1 142358Z 11006KT 28/16 A3009 RMK A01 T02810160  RH  048%=      5-min Rain = 0
KPG1 142359Z 10007KT 28/16 A3009 RMK A01 T02810160  RH  048%=      5-min Rain = 0
KPG1 150000Z 12005KT 28/16 A3009 RMK A01 T02820160  RH  047%=      5-min Rain = 0
KPG1 150001Z 08008KT 28/16 A3009 RMK A01 T02820160  RH  047%=      5-min Rain = 0
KPG1 150002Z 09008KT 28/16 A3009 RMK A01 T02820160  RH  047%=      5-min Rain = 0
KPG1 150003Z 10005KT 28/16 A3009 RMK A01 T02820159  RH  047%=      5-min Rain = 0
KPG1 150004Z 10007KT 28/16 A3009 RMK A01 T02820158  RH  047%=      5-min Rain = 0
KPG1 150005Z 09005G10KT 28/16 A3009 RMK A01 T02820159  RH  047%=      5-min Rain = 0
KPG1 150006Z 10008KT 28/16 A3009 RMK A01 T02820158  RH  047%=      5-min Rain = 0
KPG1 150007Z 11007KT 28/16 A3009 RMK A01 T02820157  RH  047%=      5-min Rain = 0
KPG1 150008Z 08008G14KT 28/16 A3009 RMK A01 T02820156  RH  046%=      5-min Rain = 0
KPG1 150009Z 09009KT 28/16 A3009 RMK A01 T02810155  RH  046%=      5-min Rain = 0
KPG1 150010Z 07007KT 28/16 A3009 RMK A01 T02810156  RH  047%=      5-min Rain = 0
KPG1 150011Z 08006KT 28/16 A3009 RMK A01 T02810155  RH  046%=      5-min Rain = 0
KPG1 150012Z 08008KT 28/16 A3009 RMK A01 T02800155  RH  047%=      5-min Rain = 0
KPG1 150013Z 08007KT 28/16 A3009 RMK A01 T02800155  RH  047%=      5-min Rain = 0
KPG1 150014Z 09005KT 28/16 A3009 RMK A01 T02810155  RH  046%=      5-min Rain = 0
KPG1 150015Z 11007KT 28/16 A3008 RMK A01 T02810155  RH  046%=      5-min Rain = 0
KPG1 150016Z 07007KT 28/16 A3008 RMK A01 T02800155  RH  046%=      5-min Rain = 0
KPG1 150017Z 07008KT 28/16 A3008 RMK A01 T02810155  RH  046%=      5-min Rain = 0
KPG1 150018Z 07008KT 28/16 A3008 RMK A01 T02810155  RH  047%=      5-min Rain = 0
KPG1 150019Z 05011KT 28/16 A3008 RMK A01 T02810156  RH  047%=      5-min Rain = 0
KPG1 150020Z 06011KT 28/16 A3008 RMK A01 T02800156  RH  047%=      5-min Rain = 0
KPG1 150021Z 05011KT 28/16 A3008 RMK A01 T02790155  RH  047%=      5-min Rain = 0
KPG1 150022Z 05012KT 28/16 A3008 RMK A01 T02780156  RH  047%=      5-min Rain = 0
KPG1 150023Z 05014KT 28/16 A3008 RMK A01 T02780155  RH  047%=      5-min Rain = 0
KPG1 150024Z 06012KT 28/16 A3008 RMK A01 T02770156  RH  048%=      5-min Rain = 0
KPG1 150025Z 05010KT 28/16 A3008 RMK A01 T02770156  RH  048%=      5-min Rain = 0
KPG1 150026Z 06011KT 28/16 A3008 RMK A01 T02760156  RH  048%=      5-min Rain = 0
KPG1 150027Z 04012KT 28/16 A3008 RMK A01 T02760157  RH  048%=      5-min Rain = 0
KPG1 150028Z 04012KT 28/16 A3008 RMK A01 T02760156  RH  048%=      5-min Rain = 0
KPG1 150029Z 05012KT 28/16 A3008 RMK A01 T02750156  RH  048%=      5-min Rain = 0
KPG1 150030Z 05013KT 27/16 A3008 RMK A01 T02740156  RH  048%=      5-min Rain = 0
KPG1 150031Z 05011KT 27/16 A3008 RMK A01 T02740155  RH  048%=      5-min Rain = 0
KPG1 150032Z 05011KT 28/16 A3008 RMK A01 T02750156  RH  048%=      5-min Rain = 0
KPG1 150033Z 05010KT 28/16 A3008 RMK A01 T02750157  RH  048%=      5-min Rain = 0
KPG1 150034Z 05008KT 28/16 A3007 RMK A01 T02750157  RH  049%=      5-min Rain = 0
KPG1 150035Z 05011KT 28/16 A3007 RMK A01 T02750157  RH  049%=      5-min Rain = 0
KPG1 150036Z 04011KT 28/16 A3007 RMK A01 T02750157  RH  049%=      5-min Rain = 0
KPG1 150037Z 05012KT 28/16 A3007 RMK A01 T02750157  RH  049%=      5-min Rain = 0
KPG1 150038Z 05012KT 28/16 A3007 RMK A01 T02750158  RH  049%=      5-min Rain = 0
KPG1 150039Z 04014KT 27/16 A3007 RMK A01 T02740159  RH  049%=      5-min Rain = 0
KPG1 150040Z 04012KT 27/16 A3007 RMK A01 T02740159  RH  049%=      5-min Rain = 0
KPG1 150041Z 05013KT 27/16 A3007 RMK A01 T02740160  RH  050%=      5-min Rain = 0
KPG1 150042Z 04011KT 27/16 A3007 RMK A01 T02740160  RH  050%=      5-min Rain = 0
KPG1 150043Z 05010KT 27/16 A3007 RMK A01 T02740160  RH  050%=      5-min Rain = 0
KPG1 150044Z 05011KT 27/16 A3007 RMK A01 T02730160  RH  050%=      5-min Rain = 0
KPG1 150045Z 04013KT 27/16 A3007 RMK A01 T02730161  RH  050%=      5-min Rain = 0
KPG1 150046Z 05011KT 27/16 A3007 RMK A01 T02730161  RH  050%=      5-min Rain = 0
KPG1 150047Z 05012KT 27/16 A3007 RMK A01 T02730161  RH  050%=      5-min Rain = 0
KPG1 150048Z 05012KT 27/16 A3007 RMK A01 T02730160  RH  050%=      5-min Rain = 0
KPG1 150049Z 04012KT 27/16 A3007 RMK A01 T02730159  RH  050%=      5-min Rain = 0
KPG1 150050Z 04013KT 27/16 A3007 RMK A01 T02730159  RH  050%=      5-min Rain = 0
KPG1 150051Z 05013KT 27/16 A3007 RMK A01 T02730159  RH  050%=      5-min Rain = 0
KPG1 150052Z 04012KT 27/16 A3007 RMK A01 T02740159  RH  049%=      5-min Rain = 0
KPG1 150053Z 05012KT 27/16 A3007 RMK A01 T02740158  RH  049%=      5-min Rain = 0
KPG1 150054Z 05010KT 27/16 A3007 RMK A01 T02740158  RH  049%=      5-min Rain = 0
KPG1 150055Z 05013KT 28/16 A3007 RMK A01 T02750159  RH  049%=      5-min Rain = 0
KPG1 150056Z 05013KT 28/16 A3007 RMK A01 T02750159  RH  049%=      5-min Rain = 0
KPG1 150057Z 04014KT 28/16 A3007 RMK A01 T02750160  RH  049%=      5-min Rain = 0
KPG1 150058Z 04014KT 27/16 A3007 RMK A01 T02740160  RH  050%=      5-min Rain = 0
KPG1 150059Z 05012KT 27/16 A3008 RMK A01 T02740160  RH  050%=      5-min Rain = 0
KPG1 150100Z 05012KT 27/16 A3008 RMK A01 T02740160  RH  050%=      5-min Rain = 0
KPG1 150101Z 03013KT 27/16 A3008 RMK A01 T02740161  RH  050%=      5-min Rain = 0
KPG1 150102Z 04014KT 27/16 A3008 RMK A01 T02740161  RH  050%=      5-min Rain = 0
KPG1 150103Z 04011KT 27/16 A3008 RMK A01 T02730160  RH  050%=      5-min Rain = 0
KPG1 150104Z 04014KT 27/16 A3008 RMK A01 T02730161  RH  050%=      5-min Rain = 0
KPG1 150105Z 03012KT 27/16 A3008 RMK A01 T02730161  RH  050%=      5-min Rain = 0
KPG1 150106Z 03014KT 27/16 A3008 RMK A01 T02720161  RH  051%=      5-min Rain = 0
KPG1 150107Z 03013KT 27/16 A3008 RMK A01 T02720161  RH  051%=      5-min Rain = 0
KPG1 150108Z 04012KT 27/16 A3008 RMK A01 T02720161  RH  051%=      5-min Rain = 0
KPG1 150109Z 04009KT 27/16 A3008 RMK A01 T02720161  RH  051%=      5-min Rain = 0
KPG1 150110Z 03012KT 27/16 A3008 RMK A01 T02720162  RH  051%=      5-min Rain = 0
KPG1 150111Z 03012KT 27/16 A3008 RMK A01 T02720161  RH  051%=      5-min Rain = 0
KPG1 150112Z 04011KT 27/16 A3008 RMK A01 T02720161  RH  051%=      5-min Rain = 0
KPG1 150113Z 04012KT 27/16 A3008 RMK A01 T02720160  RH  050%=      5-min Rain = 0
KPG1 150114Z 04013KT 27/16 A3008 RMK A01 T02720160  RH  050%=      5-min Rain = 0
KPG1 150115Z 04012KT 27/16 A3008 RMK A01 T02720161  RH  051%=      5-min Rain = 0
KPG1 150116Z 03011KT 27/16 A3008 RMK A01 T02720161  RH  051%=      5-min Rain = 0
KPG1 150117Z 03012KT 27/16 A3008 RMK A01 T02720160  RH  051%=      5-min Rain = 0
KPG1 150118Z 05013KT 27/16 A3008 RMK A01 T02720161  RH  051%=      5-min Rain = 0
KPG1 150119Z 04010KT 27/16 A3008 RMK A01 T02710161  RH  051%=      5-min Rain = 0
KPG1 150120Z 05010KT 27/16 A3008 RMK A01 T02710161  RH  051%=      5-min Rain = 0
KPG1 150121Z 04011KT 27/16 A3008 RMK A01 T02710161  RH  051%=      5-min Rain = 0
KPG1 150122Z 04013KT 27/16 A3008 RMK A01 T02720162  RH  051%=      5-min Rain = 0
KPG1 150123Z 04014KT 27/16 A3008 RMK A01 T02710161  RH  051%=      5-min Rain = 0
KPG1 150124Z 04014KT 27/16 A3008 RMK A01 T02710161  RH  051%=      5-min Rain = 0
KPG1 150125Z 05013KT 27/16 A3008 RMK A01 T02710162  RH  051%=      5-min Rain = 0
KPG1 150126Z 05013G19KT 27/16 A3008 RMK A01 T02700162  RH  051%=      5-min Rain = 0
KPG1 150127Z 04014KT 27/16 A3009 RMK A01 T02700163  RH  052%=      5-min Rain = 0
KPG1 150128Z 04014KT 27/16 A3009 RMK A01 T02700163  RH  052%=      5-min Rain = 0
KPG1 150129Z 06013KT 27/16 A3009 RMK A01 T02690163  RH  052%=      5-min Rain = 0
KPG1 150130Z 04012G18KT 27/16 A3009 RMK A01 T02690163  RH  052%=      5-min Rain = 0
KPG1 150131Z 05015KT 27/16 A3009 RMK A01 T02690163  RH  052%=      5-min Rain = 0
KPG1 150132Z 04014KT 27/16 A3009 RMK A01 T02690164  RH  053%=      5-min Rain = 0
KPG1 150133Z 05011KT 27/17 A3009 RMK A01 T02680165  RH  053%=      5-min Rain = 0
KPG1 150134Z 04010KT 27/17 A3009 RMK A01 T02680165  RH  053%=      5-min Rain = 0
KPG1 150135Z 05011KT 27/17 A3009 RMK A01 T02680166  RH  053%=      5-min Rain = 0
KPG1 150136Z 04011KT 27/17 A3009 RMK A01 T02670165  RH  054%=      5-min Rain = 0
KPG1 150137Z 03013KT 27/17 A3009 RMK A01 T02660166  RH  054%=      5-min Rain = 0
KPG1 150138Z 05012KT 27/17 A3009 RMK A01 T02660166  RH  054%=      5-min Rain = 0
KPG1 150139Z 04012KT 27/17 A3009 RMK A01 T02660166  RH  054%=      5-min Rain = 0
KPG1 150140Z 05011KT 27/17 A3009 RMK A01 T02650166  RH  055%=      5-min Rain = 0
KPG1 150141Z 04011KT 27/17 A3009 RMK A01 T02650167  RH  055%=      5-min Rain = 0
KPG1 150142Z 05011KT 27/17 A3009 RMK A01 T02650167  RH  055%=      5-min Rain = 0
KPG1 150143Z 05013KT 26/17 A3009 RMK A01 T02640167  RH  055%=      5-min Rain = 0
KPG1 150144Z 04010KT 26/17 A3009 RMK A01 T02630167  RH  055%=      5-min Rain = 0
KPG1 150145Z 04012KT 26/17 A3009 RMK A01 T02630168  RH  056%=      5-min Rain = 0
KPG1 150146Z 04012KT 26/17 A3009 RMK A01 T02630168  RH  056%=      5-min Rain = 0
KPG1 150147Z 04012KT 26/17 A301 RMK A01 T02630168  RH  056%=      5-min Rain = 0
KPG1 150148Z 03013KT 26/17 A301 RMK A01 T02620169  RH  056%=      5-min Rain = 0
KPG1 150149Z 03013KT 26/17 A301 RMK A01 T02620168  RH  056%=      5-min Rain = 0
KPG1 150150Z 03011KT 26/17 A301 RMK A01 T02620169  RH  056%=      5-min Rain = 0
KPG1 150151Z 03010KT 26/17 A301 RMK A01 T02620169  RH  057%=      5-min Rain = 0
KPG1 150152Z 04012KT 26/17 A301 RMK A01 T02610169  RH  057%=      5-min Rain = 0
KPG1 150153Z 03011KT 26/17 A301 RMK A01 T02610169  RH  057%=      5-min Rain = 0
KPG1 150154Z 04009KT 26/17 A301 RMK A01 T02610169  RH  057%=      5-min Rain = 0
KPG1 150155Z 05010KT 26/17 A301 RMK A01 T02610169  RH  057%=      5-min Rain = 0
KPG1 150156Z 04010KT 26/17 A301 RMK A01 T02610170  RH  057%=      5-min Rain = 0
KPG1 150157Z 05010KT 26/17 A301 RMK A01 T02610170  RH  057%=      5-min Rain = 0
KPG1 150158Z 05008G13KT 26/17 A301 RMK A01 T02600170  RH  057%=      5-min Rain = 0
KPG1 150159Z 04012KT 26/17 A301 RMK A01 T02600170  RH  057%=      5-min Rain = 0
KPG1 150200Z 04010KT 26/17 A301 RMK A01 T02600170  RH  057%=      5-min Rain = 0
KPG1 150201Z 05009KT 26/17 A301 RMK A01 T02600170  RH  057%=      5-min Rain = 0
KPG1 150202Z 05007KT 26/17 A301 RMK A01 T02600170  RH  057%=      5-min Rain = 0
KPG1 150203Z 04009KT 26/17 A301 RMK A01 T02600170  RH  057%=      5-min Rain = 0
KPG1 150204Z 04010KT 26/17 A301 RMK A01 T02600170  RH  058%=      5-min Rain = 0
KPG1 150205Z 03011KT 26/17 A301 RMK A01 T02610171  RH  058%=      5-min Rain = 0
KPG1 150206Z 03013KT 26/17 A301 RMK A01 T02600170  RH  058%=      5-min Rain = 0
KPG1 150207Z 03012KT 26/17 A301 RMK A01 T02600170  RH  058%=      5-min Rain = 0
KPG1 150208Z 03011KT 26/17 A301 RMK A01 T02600170  RH  058%=      5-min Rain = 0
KPG1 150209Z 03012KT 26/17 A301 RMK A01 T02600170  RH  058%=      5-min Rain = 0
KPG1 150210Z 03010KT 26/17 A301 RMK A01 T02600170  RH  058%=      5-min Rain = 0
KPG1 150211Z 04011KT 26/17 A301 RMK A01 T02600170  RH  058%=      5-min Rain = 0
KPG1 150212Z 05010KT 26/17 A301 RMK A01 T02600170  RH  058%=      5-min Rain = 0
KPG1 150213Z 05011KT 26/17 A301 RMK A01 T02600170  RH  058%=      5-min Rain = 0
KPG1 150214Z 03010KT 26/17 A301 RMK A01 T02600169  RH  057%=      5-min Rain = 0
KPG1 150215Z 05008KT 26/17 A301 RMK A01 T02600169  RH  057%=      5-min Rain = 0
KPG1 150216Z 04008KT 26/17 A301 RMK A01 T02600170  RH  057%=      5-min Rain = 0
KPG1 150217Z 04012KT 26/17 A301 RMK A01 T02600169  RH  057%=      5-min Rain = 0
KPG1 150218Z 03011KT 26/17 A301 RMK A01 T02600169  RH  057%=      5-min Rain = 0
KPG1 150219Z 03009KT 26/17 A301 RMK A01 T02600169  RH  057%=      5-min Rain = 0
KPG1 150220Z 04010KT 26/17 A301 RMK A01 T02600169  RH  057%=      5-min Rain = 0
KPG1 150221Z 04010KT 26/17 A301 RMK A01 T02600169  RH  057%=      5-min Rain = 0
KPG1 150222Z 03012KT 26/17 A301 RMK A01 T02600168  RH  057%=      5-min Rain = 0
KPG1 150223Z 02013KT 26/17 A301 RMK A01 T02600168  RH  057%=      5-min Rain = 0
KPG1 150224Z 04011KT 26/17 A301 RMK A01 T02600167  RH  057%=      5-min Rain = 0
KPG1 150225Z 03012KT 26/17 A301 RMK A01 T02600167  RH  057%=      5-min Rain = 0
KPG1 150226Z 04011KT 26/17 A301 RMK A01 T02600167  RH  056%=      5-min Rain = 0
KPG1 150227Z 04010KT 26/17 A301 RMK A01 T02600167  RH  056%=      5-min Rain = 0
KPG1 150228Z 05009KT 26/17 A301 RMK A01 T02590166  RH  056%=      5-min Rain = 0
KPG1 150229Z 05009KT 26/17 A301 RMK A01 T02590166  RH  056%=      5-min Rain = 0
KPG1 150230Z 05008KT 26/17 A301 RMK A01 T02590166  RH  056%=      5-min Rain = 0
KPG1 150231Z 04008KT 26/17 A301 RMK A01 T02590165  RH  056%=      5-min Rain = 0
KPG1 150232Z 05010KT 26/17 A301 RMK A01 T02600165  RH  056%=      5-min Rain = 0
KPG1 150233Z 05010KT 26/16 A301 RMK A01 T02590164  RH  056%=      5-min Rain = 0
KPG1 150234Z 05009KT 26/16 A301 RMK A01 T02590164  RH  055%=      5-min Rain = 0
KPG1 150235Z 04007KT 26/16 A301 RMK A01 T02600164  RH  056%=      5-min Rain = 0
KPG1 150236Z 05008KT 26/16 A301 RMK A01 T02600164  RH  056%=      5-min Rain = 0
KPG1 150237Z 04008KT 26/16 A301 RMK A01 T02590164  RH  056%=      5-min Rain = 0
KPG1 150238Z 03009KT 26/16 A301 RMK A01 T02590164  RH  055%=      5-min Rain = 0
KPG1 150239Z 03009KT 26/16 A301 RMK A01 T02590163  RH  055%=      5-min Rain = 0
KPG1 150240Z 04007KT 26/16 A301 RMK A01 T02590163  RH  055%=      5-min Rain = 0
KPG1 150241Z 02008KT 26/16 A301 RMK A01 T02590163  RH  055%=      5-min Rain = 0
KPG1 150242Z 02008KT 26/16 A301 RMK A01 T02590163  RH  055%=      5-min Rain = 0
KPG1 150243Z 02008KT 26/16 A3011 RMK A01 T02590163  RH  055%=      5-min Rain = 0
KPG1 150244Z 02009KT 26/16 A3011 RMK A01 T02600163  RH  055%=      5-min Rain = 0
KPG1 150245Z 02010KT 26/16 A3011 RMK A01 T02600163  RH  055%=      5-min Rain = 0
KPG1 150246Z 02010KT 26/16 A3011 RMK A01 T02600162  RH  055%=      5-min Rain = 0
KPG1 150247Z 03011KT 26/16 A3011 RMK A01 T02600162  RH  055%=      5-min Rain = 0
KPG1 150248Z 02011KT 26/16 A3011 RMK A01 T02600162  RH  055%=      5-min Rain = 0
KPG1 150249Z 02011KT 26/16 A3011 RMK A01 T02600162  RH  055%=      5-min Rain = 0
KPG1 150250Z 03010KT 26/16 A3011 RMK A01 T02600163  RH  055%=      5-min Rain = 0
KPG1 150251Z 02011KT 26/16 A3011 RMK A01 T02600163  RH  055%=      5-min Rain = 0
KPG1 150252Z 02011KT 26/16 A3011 RMK A01 T02600164  RH  055%=      5-min Rain = 0
KPG1 150253Z 03010KT 26/16 A3011 RMK A01 T02600164  RH  055%=      5-min Rain = 0
KPG1 150254Z 03009KT 26/16 A3011 RMK A01 T02600164  RH  055%=      5-min Rain = 0
KPG1 150255Z 03009KT 26/16 A3011 RMK A01 T02600164  RH  056%=      5-min Rain = 0
KPG1 150256Z 03010KT 26/17 A3011 RMK A01 T02590165  RH  056%=      5-min Rain = 0
KPG1 150257Z 02009KT 26/17 A3011 RMK A01 T02600165  RH  056%=      5-min Rain = 0
KPG1 150258Z 02009KT 26/17 A3011 RMK A01 T02600166  RH  056%=      5-min Rain = 0
KPG1 150259Z 03008KT 26/17 A3011 RMK A01 T02590166  RH  056%=      5-min Rain = 0
KPG1 150300Z 03009KT 26/17 A3011 RMK A01 T02590166  RH  056%=      5-min Rain = 0
KPG1 150301Z 03009KT 26/17 A3011 RMK A01 T02590166  RH  057%=      5-min Rain = 0
KPG1 150302Z 03010KT 26/17 A3011 RMK A01 T02590167  RH  057%=      5-min Rain = 0
KPG1 150303Z 03012KT 26/17 A3011 RMK A01 T02590168  RH  057%=      5-min Rain = 0
KPG1 150304Z 03011KT 26/17 A3011 RMK A01 T02590168  RH  057%=      5-min Rain = 0
KPG1 150305Z 03009KT 26/17 A3011 RMK A01 T02590168  RH  057%=      5-min Rain = 0
KPG1 150306Z 03010KT 26/17 A3011 RMK A01 T02590168  RH  057%=      5-min Rain = 0
KPG1 150307Z 03010KT 26/17 A3011 RMK A01 T02590168  RH  057%=      5-min Rain = 0
KPG1 150308Z 03009KT 26/17 A3011 RMK A01 T02590168  RH  057%=      5-min Rain = 0
KPG1 150309Z 04009KT 26/17 A3011 RMK A01 T02590168  RH  057%=      5-min Rain = 0
KPG1 150310Z 04009KT 26/17 A3011 RMK A01 T02590169  RH  057%=      5-min Rain = 0
KPG1 150311Z 05009KT 26/17 A3011 RMK A01 T02590169  RH  057%=      5-min Rain = 0
KPG1 150312Z 05008KT 26/17 A3011 RMK A01 T02590169  RH  057%=      5-min Rain = 0
KPG1 150313Z 05008KT 26/17 A3011 RMK A01 T02590169  RH  057%=      5-min Rain = 0
KPG1 150314Z 03009KT 26/17 A3011 RMK A01 T02590169  RH  058%=      5-min Rain = 0
KPG1 150315Z 03011KT 26/17 A3011 RMK A01 T02590169  RH  058%=      5-min Rain = 0
KPG1 150316Z 03011KT 26/17 A3011 RMK A01 T02590170  RH  058%=      5-min Rain = 0
KPG1 150317Z 02011KT 26/17 A3011 RMK A01 T02590170  RH  058%=      5-min Rain = 0
KPG1 150318Z 03012KT 26/17 A3011 RMK A01 T02590170  RH  058%=      5-min Rain = 0
KPG1 150319Z 03011KT 26/17 A3011 RMK A01 T02590170  RH  058%=      5-min Rain = 0
KPG1 150320Z 03010KT 26/17 A3011 RMK A01 T02590170  RH  058%=      5-min Rain = 0
KPG1 150321Z 03011KT 26/17 A3011 RMK A01 T02590171  RH  058%=      5-min Rain = 0
KPG1 150322Z 03010KT 26/17 A3011 RMK A01 T02590171  RH  058%=      5-min Rain = 0
KPG1 150323Z 03010KT 26/17 A3011 RMK A01 T02590171  RH  058%=      5-min Rain = 0
KPG1 150324Z 04011KT 26/17 A3011 RMK A01 T02590171  RH  058%=      5-min Rain = 0
KPG1 150325Z 03011KT 26/17 A3011 RMK A01 T02590171  RH  058%=      5-min Rain = 0
KPG1 150326Z 03011KT 26/17 A3011 RMK A01 T02590171  RH  058%=      5-min Rain = 0
KPG1 150327Z 03011KT 26/17 A3011 RMK A01 T02590171  RH  058%=      5-min Rain = 0
KPG1 150328Z 03012KT 26/17 A3011 RMK A01 T02590171  RH  058%=      5-min Rain = 0
KPG1 150329Z 03012KT 26/17 A3011 RMK A01 T02590171  RH  059%=      5-min Rain = 0
KPG1 150330Z 03013KT 26/17 A3011 RMK A01 T02590172  RH  059%=      5-min Rain = 0
KPG1 150331Z 03013KT 26/17 A3011 RMK A01 T02580171  RH  059%=      5-min Rain = 0
KPG1 150332Z 03013KT 26/17 A3011 RMK A01 T02580172  RH  059%=      5-min Rain = 0
KPG1 150333Z 03013KT 26/17 A3011 RMK A01 T02580172  RH  059%=      5-min Rain = 0
KPG1 150334Z 03014KT 26/17 A3011 RMK A01 T02580172  RH  059%=      5-min Rain = 0
KPG1 150335Z 02014KT 26/17 A3011 RMK A01 T02570172  RH  059%=      5-min Rain = 0
KPG1 150336Z 02013KT 26/17 A3011 RMK A01 T02580172  RH  059%=      5-min Rain = 0
KPG1 150337Z 02014KT 26/17 A3011 RMK A01 T02570172  RH  059%=      5-min Rain = 0
KPG1 150338Z 02014KT 26/17 A3011 RMK A01 T02570172  RH  059%=      5-min Rain = 0
KPG1 150339Z 02015KT 26/17 A3011 RMK A01 T02570172  RH  059%=      5-min Rain = 0
KPG1 150340Z 02015KT 26/17 A3011 RMK A01 T02570171  RH  059%=      5-min Rain = 0
KPG1 150341Z 02015KT 26/17 A3011 RMK A01 T02570172  RH  059%=      5-min Rain = 0
KPG1 150342Z 02014KT 26/17 A3011 RMK A01 T02570172  RH  059%=      5-min Rain = 0
KPG1 150343Z 02014KT 26/17 A3011 RMK A01 T02570172  RH  059%=      5-min Rain = 0
KPG1 150344Z 02014KT 26/17 A3011 RMK A01 T02560171  RH  059%=      5-min Rain = 0
KPG1 150345Z 02015KT 26/17 A3011 RMK A01 T02560172  RH  060%=      5-min Rain = 0
KPG1 150346Z 02013KT 26/17 A3011 RMK A01 T02560172  RH  060%=      5-min Rain = 0
KPG1 150347Z 02013KT 26/17 A3011 RMK A01 T02560172  RH  060%=      5-min Rain = 0
KPG1 150348Z 02015KT 26/17 A3011 RMK A01 T02560171  RH  060%=      5-min Rain = 0
KPG1 150349Z 02014KT 26/17 A3011 RMK A01 T02560171  RH  060%=      5-min Rain = 0
KPG1 150350Z 02014KT 26/17 A3011 RMK A01 T02560171  RH  060%=      5-min Rain = 0
KPG1 150351Z 02012KT 26/17 A3011 RMK A01 T02560171  RH  060%=      5-min Rain = 0
KPG1 150352Z 02015KT 26/17 A3011 RMK A01 T02560171  RH  060%=      5-min Rain = 0
KPG1 150353Z 02014KT 26/17 A3011 RMK A01 T02560172  RH  060%=      5-min Rain = 0
KPG1 150354Z 02015KT 26/17 A3011 RMK A01 T02560172  RH  060%=      5-min Rain = 0
KPG1 150355Z 01015KT 26/17 A3011 RMK A01 T02560172  RH  060%=      5-min Rain = 0
KPG1 150356Z 02016KT 26/17 A3011 RMK A01 T02560172  RH  060%=      5-min Rain = 0
KPG1 150357Z 02017KT 26/17 A3011 RMK A01 T02560172  RH  060%=      5-min Rain = 0
KPG1 150358Z 02015KT 26/17 A3011 RMK A01 T02560172  RH  060%=      5-min Rain = 0
KPG1 150359Z 02013KT 26/17 A3011 RMK A01 T02560172  RH  060%=      5-min Rain = 0
KPG1 150400Z 02015KT 26/17 A3011 RMK A01 T02560172  RH  060%=      5-min Rain = 0
KPG1 150401Z 03015KT 26/17 A3011 RMK A01 T02560172  RH  060%=      5-min Rain = 0
KPG1 150402Z 02014KT 26/17 A3011 RMK A01 T02560172  RH  060%=      5-min Rain = 0
KPG1 150403Z 02014KT 26/17 A3011 RMK A01 T02560173  RH  060%=      5-min Rain = 0
KPG1 150404Z 02015KT 26/17 A3011 RMK A01 T02560173  RH  060%=      5-min Rain = 0
KPG1 150405Z 02014KT 26/17 A3011 RMK A01 T02560173  RH  060%=      5-min Rain = 0
KPG1 150406Z 02014KT 26/17 A3011 RMK A01 T02560173  RH  060%=      5-min Rain = 0
KPG1 150407Z 02015KT 26/17 A3011 RMK A01 T02550173  RH  060%=      5-min Rain = 0
KPG1 150408Z 02013KT 25/17 A3011 RMK A01 T02540173  RH  061%=      5-min Rain = 0
KPG1 150409Z 02013KT 25/17 A3011 RMK A01 T02530173  RH  061%=      5-min Rain = 0
KPG1 150410Z 02012KT 25/17 A3011 RMK A01 T02520173  RH  062%=      5-min Rain = 0
KPG1 150411Z 01014KT 25/17 A3011 RMK A01 T02520174  RH  062%=      5-min Rain = 0
KPG1 150412Z 02014KT 25/17 A3011 RMK A01 T02520174  RH  062%=      5-min Rain = 0
KPG1 150413Z 02015KT 25/17 A3011 RMK A01 T02520174  RH  062%=      5-min Rain = 0
KPG1 150414Z 02015KT 25/17 A3011 RMK A01 T02520173  RH  062%=      5-min Rain = 0
KPG1 150415Z 01012KT 25/17 A3011 RMK A01 T02520173  RH  062%=      5-min Rain = 0
KPG1 150416Z 02014KT 25/17 A301 RMK A01 T02520173  RH  062%=      5-min Rain = 0
KPG1 150417Z 01015KT 25/17 A301 RMK A01 T02520174  RH  062%=      5-min Rain = 0
KPG1 150418Z 00014KT 25/17 A301 RMK A01 T02520174  RH  062%=      5-min Rain = 0
KPG1 150419Z 00016KT 25/17 A301 RMK A01 T02520174  RH  062%=      5-min Rain = 0
KPG1 150420Z 36016KT 25/17 A301 RMK A01 T02520174  RH  062%=      5-min Rain = 0
KPG1 150421Z 36015KT 25/17 A301 RMK A01 T02520174  RH  062%=      5-min Rain = 0
KPG1 150422Z 01015KT 25/17 A301 RMK A01 T02520174  RH  062%=      5-min Rain = 0
KPG1 150423Z 00014KT 25/17 A301 RMK A01 T02520174  RH  062%=      5-min Rain = 0
KPG1 150424Z 00014KT 25/17 A3011 RMK A01 T02520174  RH  062%=      5-min Rain = 0
KPG1 150425Z 00014KT 25/17 A301 RMK A01 T02510174  RH  062%=      5-min Rain = 0
KPG1 150426Z 36014KT 25/17 A301 RMK A01 T02510174  RH  062%=      5-min Rain = 0
KPG1 150427Z 00013KT 25/17 A301 RMK A01 T02510174  RH  062%=      5-min Rain = 0
KPG1 150428Z 00013KT 25/18 A301 RMK A01 T02510175  RH  063%=      5-min Rain = 0
KPG1 150429Z 00015KT 25/17 A301 RMK A01 T02510174  RH  063%=      5-min Rain = 0
KPG1 150430Z 36014KT 25/17 A301 RMK A01 T02510174  RH  062%=      5-min Rain = 0
KPG1 150431Z 35017KT 25/17 A301 RMK A01 T02510174  RH  062%=      5-min Rain = 0
KPG1 150432Z 35019KT 25/17 A301 RMK A01 T02520174  RH  062%=      5-min Rain = 0
KPG1 150433Z 35018KT 25/17 A301 RMK A01 T02520174  RH  062%=      5-min Rain = 0
KPG1 150434Z 35017KT 25/17 A301 RMK A01 T02520174  RH  062%=      5-min Rain = 0
KPG1 150435Z 35017KT 25/17 A301 RMK A01 T02520173  RH  062%=      5-min Rain = 0
KPG1 150436Z 35017KT 25/17 A301 RMK A01 T02520174  RH  062%=      5-min Rain = 0
KPG1 150437Z 00016KT 25/17 A3011 RMK A01 T02520174  RH  062%=      5-min Rain = 0
KPG1 150438Z 01015KT 25/17 A3011 RMK A01 T02530174  RH  062%=      5-min Rain = 0
KPG1 150439Z 01015KT 25/17 A3011 RMK A01 T02530174  RH  062%=      5-min Rain = 0
KPG1 150440Z 01015KT 25/17 A3011 RMK A01 T02530174  RH  062%=      5-min Rain = 0
KPG1 150441Z 01016KT 25/17 A3011 RMK A01 T02520173  RH  062%=      5-min Rain = 0
KPG1 150442Z 01016KT 25/17 A3011 RMK A01 T02520174  RH  062%=      5-min Rain = 0
KPG1 150443Z 00015KT 25/17 A3011 RMK A01 T02520173  RH  062%=      5-min Rain = 0
KPG1 150444Z 36017KT 25/17 A301 RMK A01 T02530174  RH  062%=      5-min Rain = 0
KPG1 150445Z 36018KT 25/17 A301 RMK A01 T02530173  RH  061%=      5-min Rain = 0
KPG1 150446Z 36017KT 25/17 A301 RMK A01 T02530173  RH  061%=      5-min Rain = 0
KPG1 150447Z 01017KT 25/17 A301 RMK A01 T02530173  RH  061%=      5-min Rain = 0
KPG1 150448Z 00015KT 25/17 A301 RMK A01 T02530173  RH  061%=      5-min Rain = 0
KPG1 150449Z 00016KT 25/17 A301 RMK A01 T02530173  RH  061%=      5-min Rain = 0
KPG1 150450Z 36016KT 25/17 A301 RMK A01 T02530173  RH  061%=      5-min Rain = 0
KPG1 150451Z 36015KT 25/17 A301 RMK A01 T02530174  RH  061%=      5-min Rain = 0
KPG1 150452Z 36014KT 25/17 A301 RMK A01 T02530173  RH  061%=      5-min Rain = 0
KPG1 150453Z 01013KT 25/17 A3011 RMK A01 T02530173  RH  061%=      5-min Rain = 0
KPG1 150454Z 02012KT 25/17 A3011 RMK A01 T02520173  RH  062%=      5-min Rain = 0
KPG1 150455Z 01012KT 25/17 A3011 RMK A01 T02520173  RH  062%=      5-min Rain = 0
KPG1 150456Z 36013G20KT 25/17 A301 RMK A01 T02520174  RH  062%=      5-min Rain = 0
KPG1 150457Z 36017KT 25/17 A301 RMK A01 T02530173  RH  061%=      5-min Rain = 0
KPG1 150458Z 01015KT 25/17 A301 RMK A01 T02540172  RH  060%=      5-min Rain = 0
KPG1 150459Z 03015KT 26/17 A3011 RMK A01 T02560171  RH  059%=      5-min Rain = 0

Page generated in 0.1218 seconds.